<?xml version="1.0" encoding="UTF-8" standalone="no" ?><gpx xmlns="http://www.topografix.com/GPX/1/1" xmlns:gpxx="http://www.garmin.com/xmlschemas/GpxExtensions/v3" xmlns:wptx1="http://www.garmin.com/xmlschemas/WaypointExtension/v1" xmlns:gpxtpx="http://www.garmin.com/xmlschemas/TrackPointExtension/v1" creator="Oregon 450" version="1.1" xmlns:xsi="http://www.w3.org/2001/XMLSchema-instance" xsi:schemaLocation="http://www.topografix.com/GPX/1/1 http://www.topografix.com/GPX/1/1/gpx.xsd http://www.garmin.com/xmlschemas/GpxExtensions/v3 http://www8.garmin.com/xmlschemas/GpxExtensionsv3.xsd http://www.garmin.com/xmlschemas/WaypointExtension/v1 http://www8.garmin.com/xmlschemas/WaypointExtensionv1.xsd http://www.garmin.com/xmlschemas/TrackPointExtension/v1 http://www.garmin.com/xmlschemas/TrackPointExtensionv1.xsd"><metadata><link href="http://www.garmin.com"><text>Garmin International</text></link><time>2013-07-21T10:32:48Z</time></metadata><trk><name>21-ČRC-13 12:32:43</name><extensions><gpxx:TrackExtension><gpxx:DisplayColor>DarkRed</gpxx:DisplayColor></gpxx:TrackExtension></extensions><trkseg><trkpt lat="46.4824934676" lon="12.0531526208"><ele>2235.68</ele><time>2013-07-21T07:03:44Z</time></trkpt><trkpt lat="46.4824934676" lon="12.0531526208"><ele>2235.68</ele><time>2013-07-21T07:03:50Z</time></trkpt><trkpt lat="46.4824934676" lon="12.0531526208"><ele>2242.41</ele><time>2013-07-21T07:03:59Z</time></trkpt><trkpt lat="46.4824934676" lon="12.0531526208"><ele>2237.13</ele><time>2013-07-21T07:04:00Z</time></trkpt><trkpt lat="46.4824935514" lon="12.0531522855"><ele>2238.57</ele><time>2013-07-21T07:04:13Z</time></trkpt><trkpt lat="46.4824998379" lon="12.0531547163"><ele>2238.09</ele><time>2013-07-21T07:04:23Z</time></trkpt><trkpt lat="46.4825217146" lon="12.0532153174"><ele>2239.05</ele><time>2013-07-21T07:04:32Z</time></trkpt><trkpt lat="46.4825194515" lon="12.0532449894"><ele>2239.53</ele><time>2013-07-21T07:04:34Z</time></trkpt><trkpt lat="46.4825065434" lon="12.0533346757"><ele>2240.01</ele><time>2013-07-21T07:04:39Z</time></trkpt><trkpt lat="46.4825098962" lon="12.0534369349"><ele>2240.01</ele><time>2013-07-21T07:04:45Z</time></trkpt><trkpt lat="46.4825272467" lon="12.0534876455"><ele>2240.01</ele><time>2013-07-21T07:04:49Z</time></trkpt><trkpt lat="46.4825101476" lon="12.0536167268"><ele>2240.49</ele><time>2013-07-21T07:04:59Z</time></trkpt><trkpt lat="46.4825067949" lon="12.0536513440"><ele>2240.49</ele><time>2013-07-21T07:05:09Z</time></trkpt><trkpt lat="46.4825176913" lon="12.0538364165"><ele>2239.53</ele><time>2013-07-21T07:05:22Z</time></trkpt><trkpt lat="46.4825225528" lon="12.0538836904"><ele>2239.53</ele><time>2013-07-21T07:05:25Z</time></trkpt><trkpt lat="46.4825191163" lon="12.0539150387"><ele>2239.53</ele><time>2013-07-21T07:05:35Z</time></trkpt><trkpt lat="46.4824575931" lon="12.0540338941"><ele>2240.49</ele><time>2013-07-21T07:05:47Z</time></trkpt><trkpt lat="46.4824524801" lon="12.0540431142"><ele>2240.97</ele><time>2013-07-21T07:05:55Z</time></trkpt><trkpt lat="46.4824477863" lon="12.0540505741"><ele>2240.97</ele><time>2013-07-21T07:06:09Z</time></trkpt><trkpt lat="46.4823902026" lon="12.0541583654"><ele>2241.45</ele><time>2013-07-21T07:06:18Z</time></trkpt><trkpt lat="46.4823629614" lon="12.0542265940"><ele>2241.45</ele><time>2013-07-21T07:06:26Z</time></trkpt><trkpt lat="46.4823507238" lon="12.0542558469"><ele>2241.93</ele><time>2013-07-21T07:06:28Z</time></trkpt><trkpt lat="46.4823408332" lon="12.0542860217"><ele>2241.93</ele><time>2013-07-21T07:06:30Z</time></trkpt><trkpt lat="46.4823160227" lon="12.0543415099"><ele>2242.41</ele><time>2013-07-21T07:06:34Z</time></trkpt><trkpt lat="46.4822932240" lon="12.0544063859"><ele>2242.41</ele><time>2013-07-21T07:06:38Z</time></trkpt><trkpt lat="46.4822106622" lon="12.0545663964"><ele>2243.85</ele><time>2013-07-21T07:06:49Z</time></trkpt><trkpt lat="46.4821823314" lon="12.0546145923"><ele>2243.85</ele><time>2013-07-21T07:06:52Z</time></trkpt><trkpt lat="46.4821523242" lon="12.0546994172"><ele>2243.85</ele><time>2013-07-21T07:06:58Z</time></trkpt><trkpt lat="46.4820799045" lon="12.0548378862"><ele>2244.33</ele><time>2013-07-21T07:07:08Z</time></trkpt><trkpt lat="46.4820288587" lon="12.0548997447"><ele>2243.85</ele><time>2013-07-21T07:07:13Z</time></trkpt><trkpt lat="46.4819666650" lon="12.0549568255"><ele>2244.33</ele><time>2013-07-21T07:07:24Z</time></trkpt><trkpt lat="46.4819180500" lon="12.0550087094"><ele>2243.85</ele><time>2013-07-21T07:07:41Z</time></trkpt><trkpt lat="46.4818493184" lon="12.0550786145"><ele>2242.89</ele><time>2013-07-21T07:07:50Z</time></trkpt><trkpt lat="46.4817219134" lon="12.0552174188"><ele>2241.45</ele><time>2013-07-21T07:08:02Z</time></trkpt><trkpt lat="46.4816399384" lon="12.0553616714"><ele>2241.45</ele><time>2013-07-21T07:08:12Z</time></trkpt><trkpt lat="46.4816232584" lon="12.0553874876"><ele>2242.41</ele><time>2013-07-21T07:08:14Z</time></trkpt><trkpt lat="46.4815852046" lon="12.0554639306"><ele>2242.89</ele><time>2013-07-21T07:08:19Z</time></trkpt><trkpt lat="46.4815639984" lon="12.0555206761"><ele>2241.93</ele><time>2013-07-21T07:08:23Z</time></trkpt><trkpt lat="46.4815079235" lon="12.0556112844"><ele>2241.45</ele><time>2013-07-21T07:08:29Z</time></trkpt><trkpt lat="46.4814448077" lon="12.0557524357"><ele>2241.45</ele><time>2013-07-21T07:08:38Z</time></trkpt><trkpt lat="46.4813708793" lon="12.0559188165"><ele>2240.97</ele><time>2013-07-21T07:08:49Z</time></trkpt><trkpt lat="46.4813236892" lon="12.0559862908"><ele>2241.45</ele><time>2013-07-21T07:08:54Z</time></trkpt><trkpt lat="46.4812720567" lon="12.0561146177"><ele>2241.45</ele><time>2013-07-21T07:09:02Z</time></trkpt><trkpt lat="46.4811832923" lon="12.0562846866"><ele>2242.89</ele><time>2013-07-21T07:09:14Z</time></trkpt><trkpt lat="46.4811260439" lon="12.0563984290"><ele>2242.41</ele><time>2013-07-21T07:09:22Z</time></trkpt><trkpt lat="46.4810859784" lon="12.0565218944"><ele>2242.89</ele><time>2013-07-21T07:09:30Z</time></trkpt><trkpt lat="46.4810803626" lon="12.0565515663"><ele>2242.41</ele><time>2013-07-21T07:09:32Z</time></trkpt><trkpt lat="46.4809894189" lon="12.0566731039"><ele>2241.93</ele><time>2013-07-21T07:09:43Z</time></trkpt><trkpt lat="46.4808999840" lon="12.0567306038"><ele>2241.45</ele><time>2013-07-21T07:09:50Z</time></trkpt><trkpt lat="46.4807501156" lon="12.0567349624"><ele>2240.49</ele><time>2013-07-21T07:09:59Z</time></trkpt><trkpt lat="46.4806885086" lon="12.0568873454"><ele>2239.53</ele><time>2013-07-21T07:10:08Z</time></trkpt><trkpt lat="46.4806416538" lon="12.0569163468"><ele>2240.01</ele><time>2013-07-21T07:10:12Z</time></trkpt><trkpt lat="46.4806027617" lon="12.0569580048"><ele>2240.01</ele><time>2013-07-21T07:10:17Z</time></trkpt><trkpt lat="46.4805254806" lon="12.0570132416"><ele>2240.01</ele><time>2013-07-21T07:10:26Z</time></trkpt><trkpt lat="46.4805189427" lon="12.0570217911"><ele>2240.49</ele><time>2013-07-21T07:10:33Z</time></trkpt><trkpt lat="46.4804653823" lon="12.0570488647"><ele>2240.01</ele><time>2013-07-21T07:10:38Z</time></trkpt><trkpt lat="46.4803813957" lon="12.0571135730"><ele>2239.53</ele><time>2013-07-21T07:10:46Z</time></trkpt><trkpt lat="46.4803665597" lon="12.0571160875"><ele>2239.05</ele><time>2013-07-21T07:10:56Z</time></trkpt><trkpt lat="46.4803648833" lon="12.0571495313"><ele>2240.01</ele><time>2013-07-21T07:11:07Z</time></trkpt><trkpt lat="46.4803745225" lon="12.0572600886"><ele>2239.05</ele><time>2013-07-21T07:11:17Z</time></trkpt><trkpt lat="46.4804128278" lon="12.0573768485"><ele>2240.01</ele><time>2013-07-21T07:11:25Z</time></trkpt><trkpt lat="46.4804139175" lon="12.0574417245"><ele>2240.97</ele><time>2013-07-21T07:11:30Z</time></trkpt><trkpt lat="46.4803737681" lon="12.0575804450"><ele>2240.49</ele><time>2013-07-21T07:11:39Z</time></trkpt><trkpt lat="46.4803575911" lon="12.0576336700"><ele>2240.01</ele><time>2013-07-21T07:11:42Z</time></trkpt><trkpt lat="46.4803414978" lon="12.0577411260"><ele>2238.57</ele><time>2013-07-21T07:11:49Z</time></trkpt><trkpt lat="46.4803463593" lon="12.0579436328"><ele>2237.13</ele><time>2013-07-21T07:12:01Z</time></trkpt><trkpt lat="46.4803485386" lon="12.0579600614"><ele>2237.13</ele><time>2013-07-21T07:12:02Z</time></trkpt><trkpt lat="46.4803360496" lon="12.0580344927"><ele>2236.64</ele><time>2013-07-21T07:12:07Z</time></trkpt><trkpt lat="46.4803244825" lon="12.0581001230"><ele>2235.68</ele><time>2013-07-21T07:12:14Z</time></trkpt><trkpt lat="46.4802901167" lon="12.0581661724"><ele>2234.24</ele><time>2013-07-21T07:12:19Z</time></trkpt><trkpt lat="46.4802466147" lon="12.0583297871"><ele>2232.32</ele><time>2013-07-21T07:12:28Z</time></trkpt><trkpt lat="46.4802346285" lon="12.0583464671"><ele>2231.84</ele><time>2013-07-21T07:12:29Z</time></trkpt><trkpt lat="46.4802029449" lon="12.0585426036"><ele>2231.84</ele><time>2013-07-21T07:12:40Z</time></trkpt><trkpt lat="46.4801859297" lon="12.0586898737"><ele>2231.84</ele><time>2013-07-21T07:12:48Z</time></trkpt><trkpt lat="46.4800990932" lon="12.0588721801"><ele>2232.80</ele><time>2013-07-21T07:12:59Z</time></trkpt><trkpt lat="46.4800695051" lon="12.0589860901"><ele>2232.32</ele><time>2013-07-21T07:13:06Z</time></trkpt><trkpt lat="46.4800583571" lon="12.0590166003"><ele>2232.80</ele><time>2013-07-21T07:13:08Z</time></trkpt><trkpt lat="46.4800326247" lon="12.0591124892"><ele>2232.80</ele><time>2013-07-21T07:13:15Z</time></trkpt><trkpt lat="46.4800298586" lon="12.0591433346"><ele>2232.80</ele><time>2013-07-21T07:13:17Z</time></trkpt><trkpt lat="46.4799845126" lon="12.0592665486"><ele>2233.28</ele><time>2013-07-21T07:13:27Z</time></trkpt><trkpt lat="46.4799547568" lon="12.0593600068"><ele>2233.28</ele><time>2013-07-21T07:13:35Z</time></trkpt><trkpt lat="46.4799372386" lon="12.0594215300"><ele>2232.80</ele><time>2013-07-21T07:13:39Z</time></trkpt><trkpt lat="46.4799266774" lon="12.0594464242"><ele>2232.80</ele><time>2013-07-21T07:13:41Z</time></trkpt><trkpt lat="46.4798873663" lon="12.0595289860"><ele>2233.28</ele><time>2013-07-21T07:13:47Z</time></trkpt><trkpt lat="46.4798608795" lon="12.0595579874"><ele>2233.76</ele><time>2013-07-21T07:13:50Z</time></trkpt><trkpt lat="46.4798395894" lon="12.0595844742"><ele>2233.76</ele><time>2013-07-21T07:13:53Z</time></trkpt><trkpt lat="46.4798020385" lon="12.0596216898"><ele>2234.24</ele><time>2013-07-21T07:13:58Z</time></trkpt><trkpt lat="46.4797214046" lon="12.0596692152"><ele>2234.24</ele><time>2013-07-21T07:14:08Z</time></trkpt><trkpt lat="46.4796535112" lon="12.0596705563"><ele>2233.28</ele><time>2013-07-21T07:14:18Z</time></trkpt><trkpt lat="46.4795921557" lon="12.0596936904"><ele>2231.84</ele><time>2013-07-21T07:14:28Z</time></trkpt><trkpt lat="46.4795921557" lon="12.0596936904"><ele>2231.84</ele><time>2013-07-21T07:14:49Z</time></trkpt><trkpt lat="46.4795732964" lon="12.0596943609"><ele>2231.36</ele><time>2013-07-21T07:14:59Z</time></trkpt><trkpt lat="46.4795527607" lon="12.0597112924"><ele>2230.88</ele><time>2013-07-21T07:15:21Z</time></trkpt><trkpt lat="46.4795345720" lon="12.0597480889"><ele>2229.92</ele><time>2013-07-21T07:15:30Z</time></trkpt><trkpt lat="46.4795056544" lon="12.0598003920"><ele>2227.51</ele><time>2013-07-21T07:15:39Z</time></trkpt><trkpt lat="46.4794412814" lon="12.0598490071"><ele>2225.59</ele><time>2013-07-21T07:15:48Z</time></trkpt><trkpt lat="46.4793802612" lon="12.0599550381"><ele>2224.15</ele><time>2013-07-21T07:15:58Z</time></trkpt><trkpt lat="46.4793372620" lon="12.0600175671"><ele>2225.11</ele><time>2013-07-21T07:16:04Z</time></trkpt><trkpt lat="46.4792532753" lon="12.0601041522"><ele>2226.07</ele><time>2013-07-21T07:16:13Z</time></trkpt><trkpt lat="46.4792203344" lon="12.0601407811"><ele>2226.07</ele><time>2013-07-21T07:16:18Z</time></trkpt><trkpt lat="46.4791969489" lon="12.0601623226"><ele>2226.07</ele><time>2013-07-21T07:16:21Z</time></trkpt><trkpt lat="46.4791397005" lon="12.0601894800"><ele>2226.55</ele><time>2013-07-21T07:16:25Z</time></trkpt><trkpt lat="46.4790807758" lon="12.0601696987"><ele>2227.03</ele><time>2013-07-21T07:16:30Z</time></trkpt><trkpt lat="46.4790594857" lon="12.0601549465"><ele>2226.55</ele><time>2013-07-21T07:16:32Z</time></trkpt><trkpt lat="46.4790300652" lon="12.0601757336"><ele>2227.51</ele><time>2013-07-21T07:16:36Z</time></trkpt><trkpt lat="46.4789350145" lon="12.0602420345"><ele>2227.99</ele><time>2013-07-21T07:16:46Z</time></trkpt><trkpt lat="46.4788971283" lon="12.0602836087"><ele>2227.51</ele><time>2013-07-21T07:16:51Z</time></trkpt><trkpt lat="46.4787796978" lon="12.0604290348"><ele>2227.03</ele><time>2013-07-21T07:17:03Z</time></trkpt><trkpt lat="46.4786760136" lon="12.0605126023"><ele>2227.99</ele><time>2013-07-21T07:17:15Z</time></trkpt><trkpt lat="46.4786272310" lon="12.0605426934"><ele>2227.51</ele><time>2013-07-21T07:17:19Z</time></trkpt><trkpt lat="46.4785417356" lon="12.0606301166"><ele>2229.43</ele><time>2013-07-21T07:17:29Z</time></trkpt><trkpt lat="46.4784630295" lon="12.0606814977"><ele>2229.92</ele><time>2013-07-21T07:17:38Z</time></trkpt><trkpt lat="46.4783988241" lon="12.0607553422"><ele>2231.84</ele><time>2013-07-21T07:17:48Z</time></trkpt><trkpt lat="46.4783304278" lon="12.0608093217"><ele>2232.32</ele><time>2013-07-21T07:17:57Z</time></trkpt><trkpt lat="46.4782898594" lon="12.0608465374"><ele>2232.32</ele><time>2013-07-21T07:18:04Z</time></trkpt><trkpt lat="46.4782483689" lon="12.0608986728"><ele>2231.84</ele><time>2013-07-21T07:18:09Z</time></trkpt><trkpt lat="46.4781546593" lon="12.0610667299"><ele>2230.88</ele><time>2013-07-21T07:18:21Z</time></trkpt><trkpt lat="46.4781010989" lon="12.0611650497"><ele>2230.88</ele><time>2013-07-21T07:18:31Z</time></trkpt><trkpt lat="46.4780942257" lon="12.0611746889"><ele>2231.84</ele><time>2013-07-21T07:18:33Z</time></trkpt><trkpt lat="46.4780508913" lon="12.0611894410"><ele>2231.84</ele><time>2013-07-21T07:18:38Z</time></trkpt><trkpt lat="46.4779921342" lon="12.0612064563"><ele>2232.80</ele><time>2013-07-21T07:18:45Z</time></trkpt><trkpt lat="46.4779394120" lon="12.0612585079"><ele>2234.72</ele><time>2013-07-21T07:18:53Z</time></trkpt><trkpt lat="46.4778664056" lon="12.0612984896"><ele>2236.16</ele><time>2013-07-21T07:19:01Z</time></trkpt><trkpt lat="46.4777206443" lon="12.0613417402"><ele>2237.61</ele><time>2013-07-21T07:19:15Z</time></trkpt><trkpt lat="46.4776276052" lon="12.0613491163"><ele>2239.05</ele><time>2013-07-21T07:19:25Z</time></trkpt><trkpt lat="46.4775459655" lon="12.0613789558"><ele>2240.49</ele><time>2013-07-21T07:19:34Z</time></trkpt><trkpt lat="46.4775137790" lon="12.0613963902"><ele>2240.49</ele><time>2013-07-21T07:19:38Z</time></trkpt><trkpt lat="46.4774045628" lon="12.0614387188"><ele>2241.93</ele><time>2013-07-21T07:19:49Z</time></trkpt><trkpt lat="46.4772976097" lon="12.0614553150"><ele>2243.37</ele><time>2013-07-21T07:19:59Z</time></trkpt><trkpt lat="46.4772276208" lon="12.0614783652"><ele>2244.33</ele><time>2013-07-21T07:20:06Z</time></trkpt><trkpt lat="46.4771510940" lon="12.0615131501"><ele>2246.26</ele><time>2013-07-21T07:20:16Z</time></trkpt><trkpt lat="46.4770621620" lon="12.0615964662"><ele>2247.70</ele><time>2013-07-21T07:20:27Z</time></trkpt><trkpt lat="46.4770331606" lon="12.0616269764"><ele>2248.66</ele><time>2013-07-21T07:20:31Z</time></trkpt><trkpt lat="46.4769902453" lon="12.0616607554"><ele>2248.18</ele><time>2013-07-21T07:20:37Z</time></trkpt><trkpt lat="46.4768800233" lon="12.0617860649"><ele>2246.26</ele><time>2013-07-21T07:20:49Z</time></trkpt><trkpt lat="46.4768303186" lon="12.0618453249"><ele>2245.78</ele><time>2013-07-21T07:20:54Z</time></trkpt><trkpt lat="46.4767983835" lon="12.0619079378"><ele>2245.30</ele><time>2013-07-21T07:20:58Z</time></trkpt><trkpt lat="46.4767467510" lon="12.0619579777"><ele>2244.82</ele><time>2013-07-21T07:21:02Z</time></trkpt><trkpt lat="46.4765448309" lon="12.0620600693"><ele>2243.85</ele><time>2013-07-21T07:21:16Z</time></trkpt><trkpt lat="46.4764991496" lon="12.0620887354"><ele>2243.85</ele><time>2013-07-21T07:21:24Z</time></trkpt><trkpt lat="46.4765019994" lon="12.0620972849"><ele>2243.37</ele><time>2013-07-21T07:21:33Z</time></trkpt><trkpt lat="46.4764958806" lon="12.0621260349"><ele>2243.37</ele><time>2013-07-21T07:21:40Z</time></trkpt><trkpt lat="46.4764958806" lon="12.0621260349"><ele>2243.37</ele><time>2013-07-21T07:21:57Z</time></trkpt><trkpt lat="46.4764958806" lon="12.0621260349"><ele>2243.37</ele><time>2013-07-21T07:22:18Z</time></trkpt><trkpt lat="46.4764955454" lon="12.0621248614"><ele>2243.37</ele><time>2013-07-21T07:22:43Z</time></trkpt><trkpt lat="46.4764951263" lon="12.0621249452"><ele>2242.89</ele><time>2013-07-21T07:23:01Z</time></trkpt><trkpt lat="46.4764951263" lon="12.0621249452"><ele>2242.89</ele><time>2013-07-21T07:23:29Z</time></trkpt><trkpt lat="46.4764917735" lon="12.0621266216"><ele>2243.37</ele><time>2013-07-21T07:23:46Z</time></trkpt><trkpt lat="46.4764921088" lon="12.0621107798"><ele>2244.33</ele><time>2013-07-21T07:23:58Z</time></trkpt><trkpt lat="46.4764890075" lon="12.0621228497"><ele>2244.33</ele><time>2013-07-21T07:24:06Z</time></trkpt><trkpt lat="46.4764666278" lon="12.0620464068"><ele>2243.37</ele><time>2013-07-21T07:24:15Z</time></trkpt><trkpt lat="46.4764552284" lon="12.0620017312"><ele>2241.93</ele><time>2013-07-21T07:24:18Z</time></trkpt><trkpt lat="46.4763906039" lon="12.0618762542"><ele>2240.97</ele><time>2013-07-21T07:24:27Z</time></trkpt><trkpt lat="46.4763637818" lon="12.0617983025"><ele>2240.01</ele><time>2013-07-21T07:24:32Z</time></trkpt><trkpt lat="46.4763133228" lon="12.0616821293"><ele>2240.49</ele><time>2013-07-21T07:24:41Z</time></trkpt><trkpt lat="46.4762813039" lon="12.0616209414"><ele>2240.97</ele><time>2013-07-21T07:24:50Z</time></trkpt><trkpt lat="46.4762786217" lon="12.0615999866"><ele>2240.01</ele><time>2013-07-21T07:25:02Z</time></trkpt><trkpt lat="46.4762690663" lon="12.0615735836"><ele>2239.53</ele><time>2013-07-21T07:25:12Z</time></trkpt><trkpt lat="46.4762489498" lon="12.0615455043"><ele>2238.57</ele><time>2013-07-21T07:25:20Z</time></trkpt><trkpt lat="46.4762581699" lon="12.0615233760"><ele>2238.57</ele><time>2013-07-21T07:25:24Z</time></trkpt><trkpt lat="46.4762685634" lon="12.0614964701"><ele>2235.68</ele><time>2013-07-21T07:25:33Z</time></trkpt><trkpt lat="46.4762563258" lon="12.0614646189"><ele>2235.20</ele><time>2013-07-21T07:25:38Z</time></trkpt><trkpt lat="46.4762367122" lon="12.0614502020"><ele>2234.72</ele><time>2013-07-21T07:25:40Z</time></trkpt><trkpt lat="46.4761809725" lon="12.0614105556"><ele>2236.64</ele><time>2013-07-21T07:25:47Z</time></trkpt><trkpt lat="46.4761965629" lon="12.0613592584"><ele>2236.64</ele><time>2013-07-21T07:25:55Z</time></trkpt><trkpt lat="46.4761795476" lon="12.0613275748"><ele>2235.68</ele><time>2013-07-21T07:25:57Z</time></trkpt><trkpt lat="46.4761684835" lon="12.0613016747"><ele>2236.16</ele><time>2013-07-21T07:25:59Z</time></trkpt><trkpt lat="46.4761431701" lon="12.0612839889"><ele>2235.68</ele><time>2013-07-21T07:26:01Z</time></trkpt><trkpt lat="46.4760260750" lon="12.0612145867"><ele>2235.20</ele><time>2013-07-21T07:26:11Z</time></trkpt><trkpt lat="46.4760097302" lon="12.0612145867"><ele>2235.68</ele><time>2013-07-21T07:26:14Z</time></trkpt><trkpt lat="46.4759775437" lon="12.0611955598"><ele>2234.24</ele><time>2013-07-21T07:26:19Z</time></trkpt><trkpt lat="46.4759479556" lon="12.0611860044"><ele>2234.72</ele><time>2013-07-21T07:26:22Z</time></trkpt><trkpt lat="46.4758553356" lon="12.0610529836"><ele>2233.28</ele><time>2013-07-21T07:26:33Z</time></trkpt><trkpt lat="46.4758135099" lon="12.0609922148"><ele>2232.32</ele><time>2013-07-21T07:26:38Z</time></trkpt><trkpt lat="46.4758040383" lon="12.0609649736"><ele>2232.80</ele><time>2013-07-21T07:26:40Z</time></trkpt><trkpt lat="46.4757492207" lon="12.0608764607"><ele>2231.84</ele><time>2013-07-21T07:26:47Z</time></trkpt><trkpt lat="46.4757055510" lon="12.0608081482"><ele>2230.40</ele><time>2013-07-21T07:26:56Z</time></trkpt><trkpt lat="46.4756911341" lon="12.0607623830"><ele>2229.43</ele><time>2013-07-21T07:27:01Z</time></trkpt><trkpt lat="46.4756880328" lon="12.0607195515"><ele>2229.43</ele><time>2013-07-21T07:27:04Z</time></trkpt><trkpt lat="46.4756512363" lon="12.0606653206"><ele>2229.43</ele><time>2013-07-21T07:27:09Z</time></trkpt><trkpt lat="46.4756042976" lon="12.0606022049"><ele>2228.95</ele><time>2013-07-21T07:27:15Z</time></trkpt><trkpt lat="46.4755582809" lon="12.0605027117"><ele>2228.47</ele><time>2013-07-21T07:27:22Z</time></trkpt><trkpt lat="46.4755532518" lon="12.0604941621"><ele>2227.99</ele><time>2013-07-21T07:27:23Z</time></trkpt><trkpt lat="46.4754999429" lon="12.0603717864"><ele>2227.51</ele><time>2013-07-21T07:27:33Z</time></trkpt><trkpt lat="46.4754816703" lon="12.0603392646"><ele>2227.51</ele><time>2013-07-21T07:27:36Z</time></trkpt><trkpt lat="46.4754404314" lon="12.0601820201"><ele>2226.07</ele><time>2013-07-21T07:27:46Z</time></trkpt><trkpt lat="46.4754070714" lon="12.0601342432"><ele>2225.59</ele><time>2013-07-21T07:27:50Z</time></trkpt><trkpt lat="46.4753490686" lon="12.0600622427"><ele>2224.63</ele><time>2013-07-21T07:28:00Z</time></trkpt><trkpt lat="46.4753019623" lon="12.0599811897"><ele>2222.71</ele><time>2013-07-21T07:28:09Z</time></trkpt><trkpt lat="46.4752612263" lon="12.0599337481"><ele>2222.71</ele><time>2013-07-21T07:28:17Z</time></trkpt><trkpt lat="46.4752567839" lon="12.0599245280"><ele>2222.22</ele><time>2013-07-21T07:28:18Z</time></trkpt><trkpt lat="46.4752304647" lon="12.0598651841"><ele>2221.74</ele><time>2013-07-21T07:28:26Z</time></trkpt><trkpt lat="46.4752126951" lon="12.0598478336"><ele>2221.26</ele><time>2013-07-21T07:28:28Z</time></trkpt><trkpt lat="46.4751531836" lon="12.0597629249"><ele>2219.82</ele><time>2013-07-21T07:28:36Z</time></trkpt><trkpt lat="46.4751405269" lon="12.0597220212"><ele>2219.34</ele><time>2013-07-21T07:28:40Z</time></trkpt><trkpt lat="46.4750943426" lon="12.0596863143"><ele>2218.38</ele><time>2013-07-21T07:28:47Z</time></trkpt><trkpt lat="46.4750397764" lon="12.0596001484"><ele>2218.86</ele><time>2013-07-21T07:28:56Z</time></trkpt><trkpt lat="46.4750045724" lon="12.0595237892"><ele>2218.86</ele><time>2013-07-21T07:29:07Z</time></trkpt><trkpt lat="46.4749996271" lon="12.0594728272"><ele>2219.82</ele><time>2013-07-21T07:29:15Z</time></trkpt><trkpt lat="46.4750081766" lon="12.0593555644"><ele>2220.78</ele><time>2013-07-21T07:29:26Z</time></trkpt><trkpt lat="46.4750081766" lon="12.0593555644"><ele>2220.78</ele><time>2013-07-21T07:29:46Z</time></trkpt><trkpt lat="46.4749908261" lon="12.0593401417"><ele>2220.78</ele><time>2013-07-21T07:29:59Z</time></trkpt><trkpt lat="46.4749567118" lon="12.0592453424"><ele>2220.30</ele><time>2013-07-21T07:30:08Z</time></trkpt><trkpt lat="46.4749316499" lon="12.0591516327"><ele>2221.26</ele><time>2013-07-21T07:30:18Z</time></trkpt><trkpt lat="46.4749198314" lon="12.0591192786"><ele>2220.78</ele><time>2013-07-21T07:30:20Z</time></trkpt><trkpt lat="46.4748909976" lon="12.0590299275"><ele>2221.26</ele><time>2013-07-21T07:30:26Z</time></trkpt><trkpt lat="46.4748047478" lon="12.0588563383"><ele>2221.26</ele><time>2013-07-21T07:30:37Z</time></trkpt><trkpt lat="46.4747497626" lon="12.0587489661"><ele>2222.22</ele><time>2013-07-21T07:30:46Z</time></trkpt><trkpt lat="46.4747335855" lon="12.0587040391"><ele>2221.74</ele><time>2013-07-21T07:30:49Z</time></trkpt><trkpt lat="46.4747304004" lon="12.0586748701"><ele>2222.22</ele><time>2013-07-21T07:30:51Z</time></trkpt><trkpt lat="46.4747252036" lon="12.0585411787"><ele>2222.22</ele><time>2013-07-21T07:31:01Z</time></trkpt><trkpt lat="46.4747094456" lon="12.0584388357"><ele>2222.22</ele><time>2013-07-21T07:31:08Z</time></trkpt><trkpt lat="46.4746650215" lon="12.0583468024"><ele>2222.22</ele><time>2013-07-21T07:31:15Z</time></trkpt><trkpt lat="46.4746661112" lon="12.0583346486"><ele>2222.22</ele><time>2013-07-21T07:31:16Z</time></trkpt><trkpt lat="46.4746587351" lon="12.0583049767"><ele>2221.74</ele><time>2013-07-21T07:31:19Z</time></trkpt><trkpt lat="46.4746381156" lon="12.0582230017"><ele>2219.34</ele><time>2013-07-21T07:31:28Z</time></trkpt><trkpt lat="46.4746359363" lon="12.0582016278"><ele>2219.34</ele><time>2013-07-21T07:31:30Z</time></trkpt><trkpt lat="46.4745983854" lon="12.0580440480"><ele>2217.90</ele><time>2013-07-21T07:31:40Z</time></trkpt><trkpt lat="46.4745711442" lon="12.0579382684"><ele>2218.38</ele><time>2013-07-21T07:31:48Z</time></trkpt><trkpt lat="46.4745566435" lon="12.0579154696"><ele>2218.38</ele><time>2013-07-21T07:31:52Z</time></trkpt><trkpt lat="46.4745171648" lon="12.0578444749"><ele>2219.82</ele><time>2013-07-21T07:32:00Z</time></trkpt><trkpt lat="46.4745061006" lon="12.0578092709"><ele>2222.22</ele><time>2013-07-21T07:32:10Z</time></trkpt><trkpt lat="46.4744835533" lon="12.0577469096"><ele>2224.15</ele><time>2013-07-21T07:32:19Z</time></trkpt><trkpt lat="46.4744574018" lon="12.0577133819"><ele>2224.63</ele><time>2013-07-21T07:32:23Z</time></trkpt><trkpt lat="46.4743880834" lon="12.0576601569"><ele>2225.11</ele><time>2013-07-21T07:32:33Z</time></trkpt><trkpt lat="46.4743574057" lon="12.0576402079"><ele>2226.07</ele><time>2013-07-21T07:32:42Z</time></trkpt><trkpt lat="46.4743415639" lon="12.0575888269"><ele>2227.03</ele><time>2013-07-21T07:32:52Z</time></trkpt><trkpt lat="46.4743186813" lon="12.0575169940"><ele>2228.95</ele><time>2013-07-21T07:33:01Z</time></trkpt><trkpt lat="46.4743044320" lon="12.0575210173"><ele>2229.43</ele><time>2013-07-21T07:33:11Z</time></trkpt><trkpt lat="46.4743056893" lon="12.0575287286"><ele>2229.92</ele><time>2013-07-21T07:33:20Z</time></trkpt><trkpt lat="46.4742889255" lon="12.0575237833"><ele>2230.88</ele><time>2013-07-21T07:33:29Z</time></trkpt><trkpt lat="46.4742262289" lon="12.0575134736"><ele>2232.80</ele><time>2013-07-21T07:33:38Z</time></trkpt><trkpt lat="46.4742030948" lon="12.0574744977"><ele>2233.28</ele><time>2013-07-21T07:33:46Z</time></trkpt><trkpt lat="46.4741745126" lon="12.0574527048"><ele>2233.76</ele><time>2013-07-21T07:33:50Z</time></trkpt><trkpt lat="46.4741592575" lon="12.0574324206"><ele>2233.76</ele><time>2013-07-21T07:33:54Z</time></trkpt><trkpt lat="46.4741310105" lon="12.0574130584"><ele>2233.76</ele><time>2013-07-21T07:33:57Z</time></trkpt><trkpt lat="46.4741175994" lon="12.0574063528"><ele>2234.24</ele><time>2013-07-21T07:33:59Z</time></trkpt><trkpt lat="46.4740602672" lon="12.0573610067"><ele>2234.24</ele><time>2013-07-21T07:34:09Z</time></trkpt><trkpt lat="46.4740364626" lon="12.0573291555"><ele>2234.72</ele><time>2013-07-21T07:34:19Z</time></trkpt><trkpt lat="46.4740071259" lon="12.0572953764"><ele>2234.24</ele><time>2013-07-21T07:34:29Z</time></trkpt><trkpt lat="46.4739465248" lon="12.0572258066"><ele>2233.76</ele><time>2013-07-21T07:34:39Z</time></trkpt><trkpt lat="46.4739255700" lon="12.0572150778"><ele>2234.24</ele><time>2013-07-21T07:34:43Z</time></trkpt><trkpt lat="46.4738720097" lon="12.0571722463"><ele>2234.72</ele><time>2013-07-21T07:34:52Z</time></trkpt><trkpt lat="46.4738576766" lon="12.0571194403"><ele>2234.24</ele><time>2013-07-21T07:34:57Z</time></trkpt><trkpt lat="46.4738025237" lon="12.0570185222"><ele>2235.20</ele><time>2013-07-21T07:35:06Z</time></trkpt><trkpt lat="46.4737922139" lon="12.0569999143"><ele>2236.16</ele><time>2013-07-21T07:35:09Z</time></trkpt><trkpt lat="46.4737778809" lon="12.0569215436"><ele>2236.64</ele><time>2013-07-21T07:35:15Z</time></trkpt><trkpt lat="46.4737772942" lon="12.0568894409"><ele>2237.61</ele><time>2013-07-21T07:35:17Z</time></trkpt><trkpt lat="46.4737760369" lon="12.0567860082"><ele>2237.13</ele><time>2013-07-21T07:35:25Z</time></trkpt><trkpt lat="46.4737436827" lon="12.0566814858"><ele>2238.09</ele><time>2013-07-21T07:35:35Z</time></trkpt><trkpt lat="46.4736985881" lon="12.0566004328"><ele>2238.57</ele><time>2013-07-21T07:35:44Z</time></trkpt><trkpt lat="46.4736678265" lon="12.0565782208"><ele>2239.05</ele><time>2013-07-21T07:35:47Z</time></trkpt><trkpt lat="46.4736082312" lon="12.0564861037"><ele>2240.01</ele><time>2013-07-21T07:35:57Z</time></trkpt><trkpt lat="46.4735630527" lon="12.0564237423"><ele>2240.97</ele><time>2013-07-21T07:36:04Z</time></trkpt><trkpt lat="46.4735474624" lon="12.0563879516"><ele>2240.49</ele><time>2013-07-21T07:36:06Z</time></trkpt><trkpt lat="46.4735044632" lon="12.0563075691"><ele>2241.45</ele><time>2013-07-21T07:36:15Z</time></trkpt><trkpt lat="46.4734954946" lon="12.0562804118"><ele>2241.93</ele><time>2013-07-21T07:36:19Z</time></trkpt><trkpt lat="46.4734551776" lon="12.0562106743"><ele>2243.37</ele><time>2013-07-21T07:36:28Z</time></trkpt><trkpt lat="46.4734555967" lon="12.0561975986"><ele>2244.33</ele><time>2013-07-21T07:36:30Z</time></trkpt><trkpt lat="46.4734253380" lon="12.0561062358"><ele>2244.33</ele><time>2013-07-21T07:36:39Z</time></trkpt><trkpt lat="46.4734135196" lon="12.0560342353"><ele>2245.30</ele><time>2013-07-21T07:36:46Z</time></trkpt><trkpt lat="46.4733861107" lon="12.0559655037"><ele>2246.26</ele><time>2013-07-21T07:36:54Z</time></trkpt><trkpt lat="46.4733592048" lon="12.0559088420"><ele>2247.70</ele><time>2013-07-21T07:37:04Z</time></trkpt><trkpt lat="46.4733399265" lon="12.0559059922"><ele>2247.70</ele><time>2013-07-21T07:37:06Z</time></trkpt><trkpt lat="46.4733297005" lon="12.0558926649"><ele>2247.70</ele><time>2013-07-21T07:37:08Z</time></trkpt><trkpt lat="46.4733087458" lon="12.0558731351"><ele>2247.70</ele><time>2013-07-21T07:37:10Z</time></trkpt><trkpt lat="46.4732760563" lon="12.0558197424"><ele>2248.66</ele><time>2013-07-21T07:37:14Z</time></trkpt><trkpt lat="46.4732366614" lon="12.0557671878"><ele>2249.62</ele><time>2013-07-21T07:37:20Z</time></trkpt><trkpt lat="46.4732154552" lon="12.0557490829"><ele>2250.10</ele><time>2013-07-21T07:37:24Z</time></trkpt><trkpt lat="46.4732076600" lon="12.0557240210"><ele>2250.10</ele><time>2013-07-21T07:37:26Z</time></trkpt><trkpt lat="46.4731385931" lon="12.0556395315"><ele>2251.06</ele><time>2013-07-21T07:37:37Z</time></trkpt><trkpt lat="46.4730911516" lon="12.0555671118"><ele>2252.99</ele><time>2013-07-21T07:37:47Z</time></trkpt><trkpt lat="46.4730752259" lon="12.0555863064"><ele>2253.47</ele><time>2013-07-21T07:37:52Z</time></trkpt><trkpt lat="46.4730562828" lon="12.0555823669"><ele>2253.95</ele><time>2013-07-21T07:37:55Z</time></trkpt><trkpt lat="46.4729966875" lon="12.0555620827"><ele>2252.99</ele><time>2013-07-21T07:38:04Z</time></trkpt><trkpt lat="46.4729497489" lon="12.0555215143"><ele>2254.43</ele><time>2013-07-21T07:38:15Z</time></trkpt><trkpt lat="46.4728945959" lon="12.0554652717"><ele>2254.91</ele><time>2013-07-21T07:38:23Z</time></trkpt><trkpt lat="46.4728557877" lon="12.0554640982"><ele>2255.87</ele><time>2013-07-21T07:38:28Z</time></trkpt><trkpt lat="46.4727977011" lon="12.0553966239"><ele>2257.79</ele><time>2013-07-21T07:38:35Z</time></trkpt><trkpt lat="46.4727426320" lon="12.0554202609"><ele>2258.75</ele><time>2013-07-21T07:38:45Z</time></trkpt><trkpt lat="46.4726931788" lon="12.0554441493"><ele>2260.20</ele><time>2013-07-21T07:38:53Z</time></trkpt><trkpt lat="46.4726549573" lon="12.0554440655"><ele>2261.64</ele><time>2013-07-21T07:39:01Z</time></trkpt><trkpt lat="46.4726252854" lon="12.0554315764"><ele>2262.60</ele><time>2013-07-21T07:39:08Z</time></trkpt><trkpt lat="46.4726026542" lon="12.0554263797"><ele>2263.56</ele><time>2013-07-21T07:39:10Z</time></trkpt><trkpt lat="46.4725157339" lon="12.0553951152"><ele>2264.04</ele><time>2013-07-21T07:39:20Z</time></trkpt><trkpt lat="46.4724495169" lon="12.0553496853"><ele>2266.45</ele><time>2013-07-21T07:39:32Z</time></trkpt><trkpt lat="46.4723837189" lon="12.0553346816"><ele>2267.89</ele><time>2013-07-21T07:39:43Z</time></trkpt><trkpt lat="46.4723314997" lon="12.0553070214"><ele>2270.77</ele><time>2013-07-21T07:39:54Z</time></trkpt><trkpt lat="46.4722792804" lon="12.0553002320"><ele>2272.21</ele><time>2013-07-21T07:40:04Z</time></trkpt><trkpt lat="46.4722486027" lon="12.0553213544"><ele>2273.66</ele><time>2013-07-21T07:40:14Z</time></trkpt><trkpt lat="46.4722129796" lon="12.0552984718"><ele>2275.58</ele><time>2013-07-21T07:40:24Z</time></trkpt><trkpt lat="46.4722129796" lon="12.0552984718"><ele>2275.58</ele><time>2013-07-21T07:40:25Z</time></trkpt><trkpt lat="46.4721752610" lon="12.0552602503"><ele>2276.54</ele><time>2013-07-21T07:40:32Z</time></trkpt><trkpt lat="46.4721140731" lon="12.0552258007"><ele>2277.50</ele><time>2013-07-21T07:40:40Z</time></trkpt><trkpt lat="46.4720596746" lon="12.0551926084"><ele>2279.42</ele><time>2013-07-21T07:40:48Z</time></trkpt><trkpt lat="46.4720596746" lon="12.0551926084"><ele>2279.42</ele><time>2013-07-21T07:40:49Z</time></trkpt><trkpt lat="46.4720393904" lon="12.0551799517"><ele>2279.90</ele><time>2013-07-21T07:40:52Z</time></trkpt><trkpt lat="46.4719924517" lon="12.0551413950"><ele>2278.94</ele><time>2013-07-21T07:40:58Z</time></trkpt><trkpt lat="46.4719414897" lon="12.0551644452"><ele>2280.38</ele><time>2013-07-21T07:41:06Z</time></trkpt><trkpt lat="46.4718507975" lon="12.0551065262"><ele>2281.35</ele><time>2013-07-21T07:41:16Z</time></trkpt><trkpt lat="46.4717932977" lon="12.0550797880"><ele>2282.79</ele><time>2013-07-21T07:41:25Z</time></trkpt><trkpt lat="46.4717893582" lon="12.0550777763"><ele>2282.79</ele><time>2013-07-21T07:41:26Z</time></trkpt><trkpt lat="46.4717292599" lon="12.0549936220"><ele>2283.75</ele><time>2013-07-21T07:41:36Z</time></trkpt><trkpt lat="46.4717021864" lon="12.0549395587"><ele>2284.71</ele><time>2013-07-21T07:41:44Z</time></trkpt><trkpt lat="46.4716624562" lon="12.0548535604"><ele>2284.71</ele><time>2013-07-21T07:41:54Z</time></trkpt><trkpt lat="46.4716325328" lon="12.0547781233"><ele>2285.67</ele><time>2013-07-21T07:42:00Z</time></trkpt><trkpt lat="46.4716185350" lon="12.0547478646"><ele>2285.67</ele><time>2013-07-21T07:42:03Z</time></trkpt><trkpt lat="46.4715772122" lon="12.0546304341"><ele>2287.11</ele><time>2013-07-21T07:42:14Z</time></trkpt><trkpt lat="46.4715638850" lon="12.0545917097"><ele>2287.59</ele><time>2013-07-21T07:42:22Z</time></trkpt><trkpt lat="46.4715273399" lon="12.0545083936"><ele>2290.00</ele><time>2013-07-21T07:42:31Z</time></trkpt><trkpt lat="46.4715174492" lon="12.0544905402"><ele>2289.52</ele><time>2013-07-21T07:42:33Z</time></trkpt><trkpt lat="46.4715019427" lon="12.0543801505"><ele>2290.96</ele><time>2013-07-21T07:42:42Z</time></trkpt><trkpt lat="46.4715062175" lon="12.0543392468"><ele>2290.96</ele><time>2013-07-21T07:42:45Z</time></trkpt><trkpt lat="46.4714997634" lon="12.0542495605"><ele>2292.40</ele><time>2013-07-21T07:42:55Z</time></trkpt><trkpt lat="46.4714546688" lon="12.0541518275"><ele>2293.36</ele><time>2013-07-21T07:43:04Z</time></trkpt><trkpt lat="46.4714501426" lon="12.0540819224"><ele>2295.77</ele><time>2013-07-21T07:43:12Z</time></trkpt><trkpt lat="46.4714579377" lon="12.0540033840"><ele>2296.73</ele><time>2013-07-21T07:43:21Z</time></trkpt><trkpt lat="46.4714616258" lon="12.0539547689"><ele>2296.73</ele><time>2013-07-21T07:43:33Z</time></trkpt><trkpt lat="46.4714520704" lon="12.0539366640"><ele>2296.73</ele><time>2013-07-21T07:43:56Z</time></trkpt><trkpt lat="46.4714519866" lon="12.0539038908"><ele>2296.25</ele><time>2013-07-21T07:44:07Z</time></trkpt><trkpt lat="46.4714541659" lon="12.0538660046"><ele>2296.73</ele><time>2013-07-21T07:44:21Z</time></trkpt><trkpt lat="46.4714537468" lon="12.0538644958"><ele>2297.21</ele><time>2013-07-21T07:44:34Z</time></trkpt><trkpt lat="46.4714701753" lon="12.0538421161"><ele>2298.65</ele><time>2013-07-21T07:44:44Z</time></trkpt><trkpt lat="46.4714672416" lon="12.0538191497"><ele>2300.09</ele><time>2013-07-21T07:44:54Z</time></trkpt><trkpt lat="46.4714654814" lon="12.0538114384"><ele>2301.05</ele><time>2013-07-21T07:44:58Z</time></trkpt><trkpt lat="46.4714652300" lon="12.0537717082"><ele>2301.53</ele><time>2013-07-21T07:45:08Z</time></trkpt><trkpt lat="46.4714968298" lon="12.0536772441"><ele>2302.49</ele><time>2013-07-21T07:45:15Z</time></trkpt><trkpt lat="46.4715123363" lon="12.0536261145"><ele>2302.98</ele><time>2013-07-21T07:45:24Z</time></trkpt><trkpt lat="46.4715041220" lon="12.0535303932"><ele>2303.94</ele><time>2013-07-21T07:45:33Z</time></trkpt><trkpt lat="46.4715073910" lon="12.0535153896"><ele>2303.94</ele><time>2013-07-21T07:45:35Z</time></trkpt><trkpt lat="46.4715236519" lon="12.0534698758"><ele>2304.42</ele><time>2013-07-21T07:45:44Z</time></trkpt><trkpt lat="46.4715204667" lon="12.0534750726"><ele>2303.94</ele><time>2013-07-21T07:46:05Z</time></trkpt><trkpt lat="46.4715152700" lon="12.0534552075"><ele>2304.42</ele><time>2013-07-21T07:46:09Z</time></trkpt><trkpt lat="46.4715147670" lon="12.0534107834"><ele>2304.42</ele><time>2013-07-21T07:46:12Z</time></trkpt><trkpt lat="46.4715296030" lon="12.0533630066"><ele>2304.90</ele><time>2013-07-21T07:46:16Z</time></trkpt><trkpt lat="46.4715232328" lon="12.0532572269"><ele>2307.30</ele><time>2013-07-21T07:46:27Z</time></trkpt><trkpt lat="46.4715152700" lon="12.0532340929"><ele>2308.26</ele><time>2013-07-21T07:46:34Z</time></trkpt><trkpt lat="46.4714643918" lon="12.0531254634"><ele>2306.82</ele><time>2013-07-21T07:46:45Z</time></trkpt><trkpt lat="46.4714482985" lon="12.0531149022"><ele>2306.82</ele><time>2013-07-21T07:46:55Z</time></trkpt><trkpt lat="46.4714328758" lon="12.0530689694"><ele>2307.30</ele><time>2013-07-21T07:47:11Z</time></trkpt><trkpt lat="46.4713927265" lon="12.0530296583"><ele>2307.30</ele><time>2013-07-21T07:47:21Z</time></trkpt><trkpt lat="46.4713742025" lon="12.0530210249"><ele>2308.26</ele><time>2013-07-21T07:47:31Z</time></trkpt><trkpt lat="46.4713738672" lon="12.0530227013"><ele>2308.74</ele><time>2013-07-21T07:47:39Z</time></trkpt><trkpt lat="46.4713738672" lon="12.0530227013"><ele>2308.74</ele><time>2013-07-21T07:48:00Z</time></trkpt><trkpt lat="46.4713731129" lon="12.0530274790"><ele>2310.19</ele><time>2013-07-21T07:48:07Z</time></trkpt><trkpt lat="46.4713703468" lon="12.0530395489"><ele>2310.67</ele><time>2013-07-21T07:48:14Z</time></trkpt><trkpt lat="46.4713754598" lon="12.0530401357"><ele>2311.15</ele><time>2013-07-21T07:48:25Z</time></trkpt><trkpt lat="46.4713754598" lon="12.0530401357"><ele>2311.15</ele><time>2013-07-21T07:48:38Z</time></trkpt><trkpt lat="46.4713736996" lon="12.0530417282"><ele>2311.63</ele><time>2013-07-21T07:48:45Z</time></trkpt><trkpt lat="46.4713627193" lon="12.0530351065"><ele>2313.07</ele><time>2013-07-21T07:48:53Z</time></trkpt><trkpt lat="46.4713576064" lon="12.0530443266"><ele>2313.55</ele><time>2013-07-21T07:49:03Z</time></trkpt><trkpt lat="46.4713389985" lon="12.0530543011"><ele>2314.99</ele><time>2013-07-21T07:49:12Z</time></trkpt><trkpt lat="46.4713294432" lon="12.0530591626"><ele>2315.47</ele><time>2013-07-21T07:49:19Z</time></trkpt><trkpt lat="46.4713244978" lon="12.0530671254"><ele>2317.40</ele><time>2013-07-21T07:49:28Z</time></trkpt><trkpt lat="46.4713189658" lon="12.0530640241"><ele>2317.88</ele><time>2013-07-21T07:49:37Z</time></trkpt><trkpt lat="46.4713189658" lon="12.0530640241"><ele>2319.32</ele><time>2013-07-21T07:49:50Z</time></trkpt><trkpt lat="46.4713029563" lon="12.0530852303"><ele>2320.76</ele><time>2013-07-21T07:49:58Z</time></trkpt><trkpt lat="46.4713148586" lon="12.0531226974"><ele>2322.68</ele><time>2013-07-21T07:50:08Z</time></trkpt><trkpt lat="46.4713046327" lon="12.0531422272"><ele>2323.16</ele><time>2013-07-21T07:50:18Z</time></trkpt><trkpt lat="46.4713055547" lon="12.0531413052"><ele>2323.16</ele><time>2013-07-21T07:50:32Z</time></trkpt><trkpt lat="46.4713092428" lon="12.0531663671"><ele>2323.64</ele><time>2013-07-21T07:50:42Z</time></trkpt><trkpt lat="46.4712880366" lon="12.0531861484"><ele>2325.57</ele><time>2013-07-21T07:50:52Z</time></trkpt><trkpt lat="46.4712548442" lon="12.0531915966"><ele>2327.49</ele><time>2013-07-21T07:51:01Z</time></trkpt><trkpt lat="46.4712234959" lon="12.0532190055"><ele>2328.93</ele><time>2013-07-21T07:51:09Z</time></trkpt><trkpt lat="46.4712339733" lon="12.0532547962"><ele>2330.85</ele><time>2013-07-21T07:51:16Z</time></trkpt><trkpt lat="46.4712525811" lon="12.0532655250"><ele>2332.30</ele><time>2013-07-21T07:51:23Z</time></trkpt><trkpt lat="46.4712683391" lon="12.0532998908"><ele>2332.30</ele><time>2013-07-21T07:51:31Z</time></trkpt><trkpt lat="46.4712801576" lon="12.0533180796"><ele>2333.26</ele><time>2013-07-21T07:51:37Z</time></trkpt><trkpt lat="46.4713091590" lon="12.0533418003"><ele>2333.74</ele><time>2013-07-21T07:51:42Z</time></trkpt><trkpt lat="46.4713730291" lon="12.0534195006"><ele>2334.70</ele><time>2013-07-21T07:51:52Z</time></trkpt><trkpt lat="46.4713800699" lon="12.0534725580"><ele>2335.66</ele><time>2013-07-21T07:52:04Z</time></trkpt><trkpt lat="46.4713374898" lon="12.0534526929"><ele>2337.10</ele><time>2013-07-21T07:52:16Z</time></trkpt><trkpt lat="46.4713264257" lon="12.0534778386"><ele>2338.54</ele><time>2013-07-21T07:52:24Z</time></trkpt><trkpt lat="46.4712939039" lon="12.0534823649"><ele>2339.99</ele><time>2013-07-21T07:52:34Z</time></trkpt><trkpt lat="46.4712437801" lon="12.0535320695"><ele>2342.39</ele><time>2013-07-21T07:52:46Z</time></trkpt><trkpt lat="46.4712101687" lon="12.0535381883"><ele>2344.31</ele><time>2013-07-21T07:52:55Z</time></trkpt><trkpt lat="46.4711803291" lon="12.0535002183"><ele>2346.23</ele><time>2013-07-21T07:53:08Z</time></trkpt><trkpt lat="46.4711769763" lon="12.0535142999"><ele>2347.68</ele><time>2013-07-21T07:53:18Z</time></trkpt><trkpt lat="46.4711519983" lon="12.0535323210"><ele>2350.08</ele><time>2013-07-21T07:53:29Z</time></trkpt><trkpt lat="46.4711455442" lon="12.0535518508"><ele>2351.52</ele><time>2013-07-21T07:53:38Z</time></trkpt><trkpt lat="46.4711214043" lon="12.0535790082"><ele>2352.48</ele><time>2013-07-21T07:53:47Z</time></trkpt><trkpt lat="46.4710642397" lon="12.0535410382"><ele>2353.93</ele><time>2013-07-21T07:53:58Z</time></trkpt><trkpt lat="46.4710518345" lon="12.0535357576"><ele>2355.85</ele><time>2013-07-21T07:54:07Z</time></trkpt><trkpt lat="46.4710450452" lon="12.0535536110"><ele>2356.81</ele><time>2013-07-21T07:54:18Z</time></trkpt><trkpt lat="46.4710450452" lon="12.0535536110"><ele>2356.81</ele><time>2013-07-21T07:54:33Z</time></trkpt><trkpt lat="46.4709921554" lon="12.0535575505"><ele>2358.25</ele><time>2013-07-21T07:54:42Z</time></trkpt><trkpt lat="46.4709655009" lon="12.0535661839"><ele>2360.17</ele><time>2013-07-21T07:54:52Z</time></trkpt><trkpt lat="46.4709629025" lon="12.0535648428"><ele>2361.14</ele><time>2013-07-21T07:55:04Z</time></trkpt><trkpt lat="46.4709363319" lon="12.0535946824"><ele>2362.10</ele><time>2013-07-21T07:55:18Z</time></trkpt><trkpt lat="46.4709185623" lon="12.0536194090"><ele>2364.02</ele><time>2013-07-21T07:55:28Z</time></trkpt><trkpt lat="46.4708666783" lon="12.0536303893"><ele>2365.46</ele><time>2013-07-21T07:55:38Z</time></trkpt><trkpt lat="46.4708177280" lon="12.0536735561"><ele>2367.38</ele><time>2013-07-21T07:55:50Z</time></trkpt><trkpt lat="46.4707796741" lon="12.0536731370"><ele>2368.35</ele><time>2013-07-21T07:55:58Z</time></trkpt><trkpt lat="46.4707277901" lon="12.0536189061"><ele>2368.83</ele><time>2013-07-21T07:56:08Z</time></trkpt><trkpt lat="46.4706719667" lon="12.0536010526"><ele>2369.31</ele><time>2013-07-21T07:56:17Z</time></trkpt><trkpt lat="46.4705969486" lon="12.0535826962"><ele>2370.27</ele><time>2013-07-21T07:56:26Z</time></trkpt><trkpt lat="46.4705338329" lon="12.0535741467"><ele>2371.71</ele><time>2013-07-21T07:56:37Z</time></trkpt><trkpt lat="46.4704728127" lon="12.0535280462"><ele>2372.19</ele><time>2013-07-21T07:56:46Z</time></trkpt><trkpt lat="46.4704164863" lon="12.0534650143"><ele>2372.67</ele><time>2013-07-21T07:56:56Z</time></trkpt><trkpt lat="46.4703537058" lon="12.0534281339"><ele>2373.15</ele><time>2013-07-21T07:57:05Z</time></trkpt><trkpt lat="46.4702884946" lon="12.0533657726"><ele>2373.63</ele><time>2013-07-21T07:57:15Z</time></trkpt><trkpt lat="46.4702130575" lon="12.0532968733"><ele>2373.63</ele><time>2013-07-21T07:57:27Z</time></trkpt><trkpt lat="46.4701719861" lon="12.0532433130"><ele>2374.11</ele><time>2013-07-21T07:57:35Z</time></trkpt><trkpt lat="46.4701325912" lon="12.0531754196"><ele>2376.04</ele><time>2013-07-21T07:57:46Z</time></trkpt><trkpt lat="46.4700993150" lon="12.0531618409"><ele>2376.52</ele><time>2013-07-21T07:57:54Z</time></trkpt><trkpt lat="46.4700952917" lon="12.0531610865"><ele>2376.52</ele><time>2013-07-21T07:58:07Z</time></trkpt><trkpt lat="46.4700842276" lon="12.0531709772"><ele>2377.00</ele><time>2013-07-21T07:58:23Z</time></trkpt><trkpt lat="46.4700832218" lon="12.0531594101"><ele>2376.04</ele><time>2013-07-21T07:58:40Z</time></trkpt><trkpt lat="46.4700811263" lon="12.0531511959"><ele>2376.04</ele><time>2013-07-21T07:58:48Z</time></trkpt><trkpt lat="46.4700811263" lon="12.0531511959"><ele>2376.04</ele><time>2013-07-21T07:59:10Z</time></trkpt><trkpt lat="46.4700811263" lon="12.0531509444"><ele>2376.04</ele><time>2013-07-21T07:59:30Z</time></trkpt><trkpt lat="46.4700811263" lon="12.0531509444"><ele>2376.04</ele><time>2013-07-21T07:59:53Z</time></trkpt><trkpt lat="46.4700812101" lon="12.0531485137"><ele>2376.04</ele><time>2013-07-21T08:00:18Z</time></trkpt><trkpt lat="46.4700812101" lon="12.0531485137"><ele>2375.55</ele><time>2013-07-21T08:00:41Z</time></trkpt><trkpt lat="46.4700814616" lon="12.0531483460"><ele>2376.04</ele><time>2013-07-21T08:00:57Z</time></trkpt><trkpt lat="46.4700814616" lon="12.0531483460"><ele>2375.55</ele><time>2013-07-21T08:01:02Z</time></trkpt><trkpt lat="46.4700814616" lon="12.0531483460"><ele>2376.04</ele><time>2013-07-21T08:01:27Z</time></trkpt><trkpt lat="46.4700805396" lon="12.0531457476"><ele>2376.04</ele><time>2013-07-21T08:01:54Z</time></trkpt><trkpt lat="46.4700803719" lon="12.0531439874"><ele>2376.04</ele><time>2013-07-21T08:02:23Z</time></trkpt><trkpt lat="46.4700803719" lon="12.0531439874"><ele>2376.04</ele><time>2013-07-21T08:02:47Z</time></trkpt><trkpt lat="46.4700732473" lon="12.0531503577"><ele>2377.00</ele><time>2013-07-21T08:03:09Z</time></trkpt><trkpt lat="46.4700716548" lon="12.0531514473"><ele>2377.00</ele><time>2013-07-21T08:03:19Z</time></trkpt><trkpt lat="46.4700401388" lon="12.0531900041"><ele>2378.92</ele><time>2013-07-21T08:03:30Z</time></trkpt><trkpt lat="46.4699999895" lon="12.0532087795"><ele>2380.36</ele><time>2013-07-21T08:03:39Z</time></trkpt><trkpt lat="46.4699735865" lon="12.0532397088"><ele>2381.80</ele><time>2013-07-21T08:03:48Z</time></trkpt><trkpt lat="46.4699293301" lon="12.0532842167"><ele>2383.73</ele><time>2013-07-21T08:03:58Z</time></trkpt><trkpt lat="46.4699063636" lon="12.0533551276"><ele>2385.17</ele><time>2013-07-21T08:04:09Z</time></trkpt><trkpt lat="46.4698833972" lon="12.0534103643"><ele>2386.61</ele><time>2013-07-21T08:04:19Z</time></trkpt><trkpt lat="46.4698652923" lon="12.0534773357"><ele>2388.53</ele><time>2013-07-21T08:04:30Z</time></trkpt><trkpt lat="46.4698217902" lon="12.0535070077"><ele>2390.46</ele><time>2013-07-21T08:04:41Z</time></trkpt><trkpt lat="46.4697912801" lon="12.0535461511"><ele>2391.90</ele><time>2013-07-21T08:04:51Z</time></trkpt><trkpt lat="46.4697583392" lon="12.0535711292"><ele>2393.82</ele><time>2013-07-21T08:05:00Z</time></trkpt><trkpt lat="46.4697200339" lon="12.0535956882"><ele>2394.78</ele><time>2013-07-21T08:05:10Z</time></trkpt><trkpt lat="46.4696689881" lon="12.0536271203"><ele>2396.70</ele><time>2013-07-21T08:05:22Z</time></trkpt><trkpt lat="46.4696544036" lon="12.0536355022"><ele>2397.67</ele><time>2013-07-21T08:05:31Z</time></trkpt><trkpt lat="46.4696337003" lon="12.0536722150"><ele>2398.63</ele><time>2013-07-21T08:05:40Z</time></trkpt><trkpt lat="46.4696114883" lon="12.0537081733"><ele>2401.03</ele><time>2013-07-21T08:05:50Z</time></trkpt><trkpt lat="46.4695786312" lon="12.0537427906"><ele>2402.95</ele><time>2013-07-21T08:06:01Z</time></trkpt><trkpt lat="46.4695583470" lon="12.0537815988"><ele>2403.91</ele><time>2013-07-21T08:06:12Z</time></trkpt><trkpt lat="46.4695428405" lon="12.0538033079"><ele>2405.36</ele><time>2013-07-21T08:06:24Z</time></trkpt><trkpt lat="46.4694954827" lon="12.0538489893"><ele>2406.32</ele><time>2013-07-21T08:06:37Z</time></trkpt><trkpt lat="46.4694710076" lon="12.0538766496"><ele>2408.24</ele><time>2013-07-21T08:06:45Z</time></trkpt><trkpt lat="46.4694694150" lon="12.0538816787"><ele>2409.68</ele><time>2013-07-21T08:06:57Z</time></trkpt><trkpt lat="46.4694169443" lon="12.0539437886"><ele>2411.60</ele><time>2013-07-21T08:07:08Z</time></trkpt><trkpt lat="46.4693965763" lon="12.0539818425"><ele>2413.05</ele><time>2013-07-21T08:07:19Z</time></trkpt><trkpt lat="46.4693636354" lon="12.0540034678"><ele>2414.97</ele><time>2013-07-21T08:07:31Z</time></trkpt><trkpt lat="46.4693570975" lon="12.0540206507"><ele>2415.45</ele><time>2013-07-21T08:07:49Z</time></trkpt><trkpt lat="46.4693368133" lon="12.0540468860"><ele>2415.93</ele><time>2013-07-21T08:07:56Z</time></trkpt><trkpt lat="46.4693291858" lon="12.0540623926"><ele>2416.89</ele><time>2013-07-21T08:08:07Z</time></trkpt><trkpt lat="46.4692963287" lon="12.0541146956"><ele>2418.81</ele><time>2013-07-21T08:08:16Z</time></trkpt><trkpt lat="46.4692757092" lon="12.0541316271"><ele>2420.26</ele><time>2013-07-21T08:08:26Z</time></trkpt><trkpt lat="46.4692521561" lon="12.0541681722"><ele>2421.22</ele><time>2013-07-21T08:08:35Z</time></trkpt><trkpt lat="46.4692208916" lon="12.0542001911"><ele>2422.66</ele><time>2013-07-21T08:08:46Z</time></trkpt><trkpt lat="46.4691560157" lon="12.0542451181"><ele>2423.62</ele><time>2013-07-21T08:08:57Z</time></trkpt><trkpt lat="46.4691167045" lon="12.0542856026"><ele>2426.02</ele><time>2013-07-21T08:09:09Z</time></trkpt><trkpt lat="46.4690937381" lon="12.0543182082"><ele>2427.47</ele><time>2013-07-21T08:09:19Z</time></trkpt><trkpt lat="46.4690825902" lon="12.0543295238"><ele>2427.95</ele><time>2013-07-21T08:09:30Z</time></trkpt><trkpt lat="46.4690618031" lon="12.0543626323"><ele>2429.87</ele><time>2013-07-21T08:09:40Z</time></trkpt><trkpt lat="46.4690638147" lon="12.0544032007"><ele>2430.35</ele><time>2013-07-21T08:09:49Z</time></trkpt><trkpt lat="46.4690555166" lon="12.0544289332"><ele>2431.79</ele><time>2013-07-21T08:10:00Z</time></trkpt><trkpt lat="46.4690281916" lon="12.0544529893"><ele>2433.71</ele><time>2013-07-21T08:10:11Z</time></trkpt><trkpt lat="46.4689768944" lon="12.0545068849"><ele>2435.64</ele><time>2013-07-21T08:10:24Z</time></trkpt><trkpt lat="46.4689390082" lon="12.0545389876"><ele>2436.60</ele><time>2013-07-21T08:10:36Z</time></trkpt><trkpt lat="46.4689043909" lon="12.0545439329"><ele>2437.56</ele><time>2013-07-21T08:10:44Z</time></trkpt><trkpt lat="46.4689001162" lon="12.0545576792"><ele>2438.04</ele><time>2013-07-21T08:11:03Z</time></trkpt><trkpt lat="46.4688791614" lon="12.0545819867"><ele>2439.96</ele><time>2013-07-21T08:11:17Z</time></trkpt><trkpt lat="46.4688768983" lon="12.0545842499"><ele>2440.44</ele><time>2013-07-21T08:11:30Z</time></trkpt><trkpt lat="46.4688768983" lon="12.0545842499"><ele>2439.96</ele><time>2013-07-21T08:11:52Z</time></trkpt><trkpt lat="46.4688301273" lon="12.0545992535"><ele>2440.92</ele><time>2013-07-21T08:12:09Z</time></trkpt><trkpt lat="46.4687971864" lon="12.0546040311"><ele>2442.37</ele><time>2013-07-21T08:12:17Z</time></trkpt><trkpt lat="46.4687987790" lon="12.0546080545"><ele>2442.37</ele><time>2013-07-21T08:12:27Z</time></trkpt><trkpt lat="46.4687987790" lon="12.0546080545"><ele>2443.81</ele><time>2013-07-21T08:12:48Z</time></trkpt><trkpt lat="46.4687987790" lon="12.0546178613"><ele>2443.81</ele><time>2013-07-21T08:12:59Z</time></trkpt><trkpt lat="46.4688240923" lon="12.0546451025"><ele>2443.81</ele><time>2013-07-21T08:13:11Z</time></trkpt><trkpt lat="46.4688144531" lon="12.0546575077"><ele>2445.25</ele><time>2013-07-21T08:13:20Z</time></trkpt><trkpt lat="46.4688116033" lon="12.0547063742"><ele>2446.69</ele><time>2013-07-21T08:13:29Z</time></trkpt><trkpt lat="46.4687999524" lon="12.0547126606"><ele>2449.10</ele><time>2013-07-21T08:13:38Z</time></trkpt><trkpt lat="46.4687862061" lon="12.0547198690"><ele>2449.10</ele><time>2013-07-21T08:13:46Z</time></trkpt><trkpt lat="46.4687836077" lon="12.0547341183"><ele>2450.06</ele><time>2013-07-21T08:13:58Z</time></trkpt><trkpt lat="46.4688043110" lon="12.0547744352"><ele>2451.02</ele><time>2013-07-21T08:14:06Z</time></trkpt><trkpt lat="46.4687805064" lon="12.0547759440"><ele>2452.94</ele><time>2013-07-21T08:14:15Z</time></trkpt><trkpt lat="46.4687778242" lon="12.0547917020"><ele>2452.94</ele><time>2013-07-21T08:14:23Z</time></trkpt><trkpt lat="46.4687784947" lon="12.0548042748"><ele>2455.34</ele><time>2013-07-21T08:14:31Z</time></trkpt><trkpt lat="46.4687844459" lon="12.0548140816"><ele>2454.38</ele><time>2013-07-21T08:14:33Z</time></trkpt><trkpt lat="46.4688071609" lon="12.0548664685"><ele>2454.86</ele><time>2013-07-21T08:14:38Z</time></trkpt><trkpt lat="46.4688497409" lon="12.0549120661"><ele>2457.27</ele><time>2013-07-21T08:14:48Z</time></trkpt><trkpt lat="46.4688735455" lon="12.0549404807"><ele>2458.23</ele><time>2013-07-21T08:14:56Z</time></trkpt><trkpt lat="46.4689163771" lon="12.0549727511"><ele>2456.31</ele><time>2013-07-21T08:15:03Z</time></trkpt><trkpt lat="46.4689680934" lon="12.0550150797"><ele>2457.27</ele><time>2013-07-21T08:15:14Z</time></trkpt><trkpt lat="46.4690094162" lon="12.0550274849"><ele>2457.27</ele><time>2013-07-21T08:15:21Z</time></trkpt><trkpt lat="46.4690094162" lon="12.0550274849"><ele>2457.75</ele><time>2013-07-21T08:15:35Z</time></trkpt><trkpt lat="46.4690012019" lon="12.0550441649"><ele>2458.71</ele><time>2013-07-21T08:15:43Z</time></trkpt><trkpt lat="46.4690212347" lon="12.0550553966"><ele>2459.19</ele><time>2013-07-21T08:15:51Z</time></trkpt><trkpt lat="46.4690382499" lon="12.0550850686"><ele>2461.11</ele><time>2013-07-21T08:16:01Z</time></trkpt><trkpt lat="46.4690405969" lon="12.0551050175"><ele>2461.11</ele><time>2013-07-21T08:16:13Z</time></trkpt><trkpt lat="46.4690407645" lon="12.0551208593"><ele>2462.55</ele><time>2013-07-21T08:16:24Z</time></trkpt><trkpt lat="46.4690426085" lon="12.0551248826"><ele>2463.52</ele><time>2013-07-21T08:16:29Z</time></trkpt><trkpt lat="46.4690519962" lon="12.0551701449"><ele>2463.52</ele><time>2013-07-21T08:16:39Z</time></trkpt><trkpt lat="46.4690675866" lon="12.0552001521"><ele>2464.48</ele><time>2013-07-21T08:16:49Z</time></trkpt><trkpt lat="46.4690726157" lon="12.0552056003"><ele>2464.00</ele><time>2013-07-21T08:17:05Z</time></trkpt><trkpt lat="46.4690696821" lon="12.0552116353"><ele>2464.96</ele><time>2013-07-21T08:17:19Z</time></trkpt><trkpt lat="46.4690744597" lon="12.0552368648"><ele>2464.96</ele><time>2013-07-21T08:17:30Z</time></trkpt><trkpt lat="46.4690717775" lon="12.0552328415"><ele>2465.92</ele><time>2013-07-21T08:17:45Z</time></trkpt><trkpt lat="46.4690753818" lon="12.0552344341"><ele>2465.92</ele><time>2013-07-21T08:17:57Z</time></trkpt><trkpt lat="46.4690669999" lon="12.0552399661"><ele>2466.40</ele><time>2013-07-21T08:18:08Z</time></trkpt><trkpt lat="46.4690641500" lon="12.0552421454"><ele>2465.92</ele><time>2013-07-21T08:18:26Z</time></trkpt><trkpt lat="46.4690572768" lon="12.0552731585"><ele>2464.96</ele><time>2013-07-21T08:18:36Z</time></trkpt><trkpt lat="46.4690419380" lon="12.0552744996"><ele>2466.40</ele><time>2013-07-21T08:18:39Z</time></trkpt><trkpt lat="46.4690298680" lon="12.0552677102"><ele>2465.92</ele><time>2013-07-21T08:18:50Z</time></trkpt><trkpt lat="46.4690163732" lon="12.0552682970"><ele>2465.92</ele><time>2013-07-21T08:19:01Z</time></trkpt><trkpt lat="46.4689954184" lon="12.0552512817"><ele>2466.40</ele><time>2013-07-21T08:19:11Z</time></trkpt><trkpt lat="46.4689669199" lon="12.0552957058"><ele>2468.32</ele><time>2013-07-21T08:19:21Z</time></trkpt><trkpt lat="46.4689377509" lon="12.0552902576"><ele>2469.76</ele><time>2013-07-21T08:19:29Z</time></trkpt><trkpt lat="46.4689251781" lon="12.0552869048"><ele>2470.24</ele><time>2013-07-21T08:19:38Z</time></trkpt><trkpt lat="46.4689152036" lon="12.0553053450"><ele>2471.69</ele><time>2013-07-21T08:19:44Z</time></trkpt><trkpt lat="46.4689131919" lon="12.0553186722"><ele>2472.65</ele><time>2013-07-21T08:19:52Z</time></trkpt><trkpt lat="46.4689183049" lon="12.0553113800"><ele>2474.09</ele><time>2013-07-21T08:20:01Z</time></trkpt><trkpt lat="46.4689341467" lon="12.0553107932"><ele>2476.01</ele><time>2013-07-21T08:20:12Z</time></trkpt><trkpt lat="46.4689308777" lon="12.0553218573"><ele>2477.45</ele><time>2013-07-21T08:20:19Z</time></trkpt><trkpt lat="46.4689281955" lon="12.0552872401"><ele>2477.94</ele><time>2013-07-21T08:20:29Z</time></trkpt><trkpt lat="46.4689180534" lon="12.0552568976"><ele>2480.34</ele><time>2013-07-21T08:20:39Z</time></trkpt><trkpt lat="46.4688527584" lon="12.0552386250"><ele>2482.26</ele><time>2013-07-21T08:20:48Z</time></trkpt><trkpt lat="46.4688328933" lon="12.0551999006"><ele>2484.18</ele><time>2013-07-21T08:20:59Z</time></trkpt><trkpt lat="46.4688184764" lon="12.0551453345"><ele>2485.63</ele><time>2013-07-21T08:21:10Z</time></trkpt><trkpt lat="46.4688003715" lon="12.0551532973"><ele>2486.11</ele><time>2013-07-21T08:21:21Z</time></trkpt><trkpt lat="46.4687822666" lon="12.0551545545"><ele>2487.55</ele><time>2013-07-21T08:21:33Z</time></trkpt><trkpt lat="46.4687674306" lon="12.0551511180"><ele>2488.51</ele><time>2013-07-21T08:21:42Z</time></trkpt><trkpt lat="46.4687576238" lon="12.0551512018"><ele>2489.95</ele><time>2013-07-21T08:21:53Z</time></trkpt><trkpt lat="46.4687303826" lon="12.0551493578"><ele>2492.36</ele><time>2013-07-21T08:22:05Z</time></trkpt><trkpt lat="46.4686839469" lon="12.0551613439"><ele>2493.80</ele><time>2013-07-21T08:22:14Z</time></trkpt><trkpt lat="46.4686329849" lon="12.0551263075"><ele>2495.72</ele><time>2013-07-21T08:22:27Z</time></trkpt><trkpt lat="46.4686302189" lon="12.0551262237"><ele>2495.72</ele><time>2013-07-21T08:22:42Z</time></trkpt><trkpt lat="46.4686105214" lon="12.0551377069"><ele>2497.64</ele><time>2013-07-21T08:22:52Z</time></trkpt><trkpt lat="46.4685938414" lon="12.0551809575"><ele>2498.60</ele><time>2013-07-21T08:23:00Z</time></trkpt><trkpt lat="46.4685745630" lon="12.0551971346"><ele>2500.05</ele><time>2013-07-21T08:23:08Z</time></trkpt><trkpt lat="46.4685544465" lon="12.0552209392"><ele>2502.93</ele><time>2013-07-21T08:23:20Z</time></trkpt><trkpt lat="46.4684996288" lon="12.0552464202"><ele>2504.37</ele><time>2013-07-21T08:23:30Z</time></trkpt><trkpt lat="46.4685134590" lon="12.0552587416"><ele>2505.81</ele><time>2013-07-21T08:23:40Z</time></trkpt><trkpt lat="46.4685453102" lon="12.0553069375"><ele>2507.26</ele><time>2013-07-21T08:23:49Z</time></trkpt><trkpt lat="46.4685649239" lon="12.0553423930"><ele>2508.22</ele><time>2013-07-21T08:23:58Z</time></trkpt><trkpt lat="46.4685625769" lon="12.0553497691"><ele>2507.74</ele><time>2013-07-21T08:24:06Z</time></trkpt><trkpt lat="46.4685625769" lon="12.0553497691"><ele>2508.22</ele><time>2013-07-21T08:24:30Z</time></trkpt><trkpt lat="46.4685625769" lon="12.0553497691"><ele>2509.18</ele><time>2013-07-21T08:24:39Z</time></trkpt><trkpt lat="46.4685664326" lon="12.0553575642"><ele>2509.18</ele><time>2013-07-21T08:24:55Z</time></trkpt><trkpt lat="46.4685379341" lon="12.0553807821"><ele>2510.62</ele><time>2013-07-21T08:25:05Z</time></trkpt><trkpt lat="46.4685058314" lon="12.0554273017"><ele>2512.06</ele><time>2013-07-21T08:25:15Z</time></trkpt><trkpt lat="46.4685087651" lon="12.0554631762"><ele>2513.50</ele><time>2013-07-21T08:25:25Z</time></trkpt><trkpt lat="46.4684884809" lon="12.0555062592"><ele>2514.95</ele><time>2013-07-21T08:25:35Z</time></trkpt><trkpt lat="46.4684741478" lon="12.0555614959"><ele>2516.39</ele><time>2013-07-21T08:25:45Z</time></trkpt><trkpt lat="46.4684894867" lon="12.0555804390"><ele>2517.83</ele><time>2013-07-21T08:25:53Z</time></trkpt><trkpt lat="46.4684969466" lon="12.0556024835"><ele>2518.79</ele><time>2013-07-21T08:26:01Z</time></trkpt><trkpt lat="46.4685352519" lon="12.0556174871"><ele>2520.23</ele><time>2013-07-21T08:26:11Z</time></trkpt><trkpt lat="46.4685378503" lon="12.0556626655"><ele>2522.16</ele><time>2013-07-21T08:26:21Z</time></trkpt><trkpt lat="46.4685294684" lon="12.0557043236"><ele>2523.60</ele><time>2013-07-21T08:26:33Z</time></trkpt><trkpt lat="46.4685390238" lon="12.0557123702"><ele>2525.52</ele><time>2013-07-21T08:26:45Z</time></trkpt><trkpt lat="46.4685441367" lon="12.0557319000"><ele>2526.96</ele><time>2013-07-21T08:26:54Z</time></trkpt><trkpt lat="46.4685386047" lon="12.0557561237"><ele>2527.92</ele><time>2013-07-21T08:27:02Z</time></trkpt><trkpt lat="46.4685381856" lon="12.0557879750"><ele>2528.40</ele><time>2013-07-21T08:27:10Z</time></trkpt><trkpt lat="46.4685529377" lon="12.0558284596"><ele>2530.81</ele><time>2013-07-21T08:27:23Z</time></trkpt><trkpt lat="46.4685806818" lon="12.0558800921"><ele>2532.25</ele><time>2013-07-21T08:27:33Z</time></trkpt><trkpt lat="46.4685766585" lon="12.0559404418"><ele>2533.21</ele><time>2013-07-21T08:27:42Z</time></trkpt><trkpt lat="46.4685978647" lon="12.0559332334"><ele>2535.13</ele><time>2013-07-21T08:27:52Z</time></trkpt><trkpt lat="46.4686220884" lon="12.0559503324"><ele>2536.10</ele><time>2013-07-21T08:28:02Z</time></trkpt><trkpt lat="46.4686450548" lon="12.0559439622"><ele>2537.06</ele><time>2013-07-21T08:28:09Z</time></trkpt><trkpt lat="46.4686533529" lon="12.0559407771"><ele>2537.54</ele><time>2013-07-21T08:28:11Z</time></trkpt><trkpt lat="46.4686606452" lon="12.0559689403"><ele>2538.50</ele><time>2013-07-21T08:28:18Z</time></trkpt><trkpt lat="46.4686654229" lon="12.0560098439"><ele>2540.90</ele><time>2013-07-21T08:28:31Z</time></trkpt><trkpt lat="46.4687002916" lon="12.0560468920"><ele>2541.86</ele><time>2013-07-21T08:28:40Z</time></trkpt><trkpt lat="46.4686863776" lon="12.0560804196"><ele>2542.82</ele><time>2013-07-21T08:28:49Z</time></trkpt><trkpt lat="46.4687099308" lon="12.0561083313"><ele>2544.75</ele><time>2013-07-21T08:28:59Z</time></trkpt><trkpt lat="46.4687148761" lon="12.0561189763"><ele>2544.75</ele><time>2013-07-21T08:29:01Z</time></trkpt><trkpt lat="46.4687364176" lon="12.0561443735"><ele>2546.67</ele><time>2013-07-21T08:29:10Z</time></trkpt><trkpt lat="46.4687584620" lon="12.0561679266"><ele>2548.59</ele><time>2013-07-21T08:29:19Z</time></trkpt><trkpt lat="46.4687791653" lon="12.0562002808"><ele>2549.55</ele><time>2013-07-21T08:29:28Z</time></trkpt><trkpt lat="46.4688162971" lon="12.0562451240"><ele>2551.96</ele><time>2013-07-21T08:29:38Z</time></trkpt><trkpt lat="46.4688241761" lon="12.0562631451"><ele>2552.92</ele><time>2013-07-21T08:29:48Z</time></trkpt><trkpt lat="46.4688441250" lon="12.0562928170"><ele>2554.36</ele><time>2013-07-21T08:29:53Z</time></trkpt><trkpt lat="46.4688572846" lon="12.0563120116"><ele>2555.80</ele><time>2013-07-21T08:30:00Z</time></trkpt><trkpt lat="46.4688909799" lon="12.0563279372"><ele>2556.76</ele><time>2013-07-21T08:30:11Z</time></trkpt><trkpt lat="46.4689028822" lon="12.0563677512"><ele>2557.73</ele><time>2013-07-21T08:30:19Z</time></trkpt><trkpt lat="46.4689045586" lon="12.0563703496"><ele>2557.73</ele><time>2013-07-21T08:30:36Z</time></trkpt><trkpt lat="46.4689045586" lon="12.0563703496"><ele>2558.21</ele><time>2013-07-21T08:30:56Z</time></trkpt><trkpt lat="46.4689092524" lon="12.0563701820"><ele>2558.69</ele><time>2013-07-21T08:31:18Z</time></trkpt><trkpt lat="46.4689092524" lon="12.0563701820"><ele>2558.69</ele><time>2013-07-21T08:31:36Z</time></trkpt><trkpt lat="46.4689221606" lon="12.0563837606"><ele>2559.17</ele><time>2013-07-21T08:31:43Z</time></trkpt><trkpt lat="46.4689151198" lon="12.0564208087"><ele>2560.61</ele><time>2013-07-21T08:31:51Z</time></trkpt><trkpt lat="46.4689365774" lon="12.0564438589"><ele>2561.57</ele><time>2013-07-21T08:31:59Z</time></trkpt><trkpt lat="46.4689401817" lon="12.0564877801"><ele>2563.01</ele><time>2013-07-21T08:32:09Z</time></trkpt><trkpt lat="46.4689136948" lon="12.0565404184"><ele>2564.93</ele><time>2013-07-21T08:32:18Z</time></trkpt><trkpt lat="46.4688902255" lon="12.0565507282"><ele>2565.42</ele><time>2013-07-21T08:32:26Z</time></trkpt><trkpt lat="46.4688811731" lon="12.0565549191"><ele>2566.86</ele><time>2013-07-21T08:32:38Z</time></trkpt><trkpt lat="46.4688730426" lon="12.0565636363"><ele>2567.82</ele><time>2013-07-21T08:32:45Z</time></trkpt><trkpt lat="46.4689007867" lon="12.0566056296"><ele>2568.78</ele><time>2013-07-21T08:32:53Z</time></trkpt><trkpt lat="46.4689001162" lon="12.0566081442"><ele>2570.22</ele><time>2013-07-21T08:33:01Z</time></trkpt><trkpt lat="46.4689072408" lon="12.0566231478"><ele>2570.70</ele><time>2013-07-21T08:33:06Z</time></trkpt><trkpt lat="46.4689122699" lon="12.0566214714"><ele>2570.70</ele><time>2013-07-21T08:33:16Z</time></trkpt><trkpt lat="46.4689101744" lon="12.0566455275"><ele>2572.14</ele><time>2013-07-21T08:33:28Z</time></trkpt><trkpt lat="46.4689074922" lon="12.0566581842"><ele>2573.59</ele><time>2013-07-21T08:33:36Z</time></trkpt><trkpt lat="46.4689232502" lon="12.0566726848"><ele>2574.55</ele><time>2013-07-21T08:33:45Z</time></trkpt><trkpt lat="46.4689473063" lon="12.0567451883"><ele>2575.99</ele><time>2013-07-21T08:33:55Z</time></trkpt><trkpt lat="46.4689571969" lon="12.0567829907"><ele>2577.91</ele><time>2013-07-21T08:34:05Z</time></trkpt><trkpt lat="46.4689773135" lon="12.0568310190"><ele>2579.35</ele><time>2013-07-21T08:34:17Z</time></trkpt><trkpt lat="46.4689882938" lon="12.0568453521"><ele>2581.28</ele><time>2013-07-21T08:34:29Z</time></trkpt><trkpt lat="46.4690306224" lon="12.0568892732"><ele>2581.28</ele><time>2013-07-21T08:34:39Z</time></trkpt><trkpt lat="46.4690400101" lon="12.0569509640"><ele>2582.72</ele><time>2013-07-21T08:34:48Z</time></trkpt><trkpt lat="46.4690642338" lon="12.0569791272"><ele>2584.16</ele><time>2013-07-21T08:35:00Z</time></trkpt><trkpt lat="46.4690872002" lon="12.0569915324"><ele>2585.12</ele><time>2013-07-21T08:35:12Z</time></trkpt><trkpt lat="46.4690872002" lon="12.0569915324"><ele>2585.12</ele><time>2013-07-21T08:35:25Z</time></trkpt><trkpt lat="46.4690760523" lon="12.0570173487"><ele>2586.08</ele><time>2013-07-21T08:35:38Z</time></trkpt><trkpt lat="46.4690547623" lon="12.0570511278"><ele>2587.04</ele><time>2013-07-21T08:35:48Z</time></trkpt><trkpt lat="46.4690428600" lon="12.0570818055"><ele>2589.45</ele><time>2013-07-21T08:36:00Z</time></trkpt><trkpt lat="46.4690203127" lon="12.0571066160"><ele>2590.41</ele><time>2013-07-21T08:36:10Z</time></trkpt><trkpt lat="46.4689949155" lon="12.0571155846"><ele>2591.37</ele><time>2013-07-21T08:36:19Z</time></trkpt><trkpt lat="46.4689856954" lon="12.0571122319"><ele>2592.33</ele><time>2013-07-21T08:36:30Z</time></trkpt><trkpt lat="46.4689695183" lon="12.0571358688"><ele>2593.29</ele><time>2013-07-21T08:36:39Z</time></trkpt><trkpt lat="46.4689766429" lon="12.0571459271"><ele>2593.29</ele><time>2013-07-21T08:36:48Z</time></trkpt><trkpt lat="46.4689766429" lon="12.0571459271"><ele>2593.29</ele><time>2013-07-21T08:37:05Z</time></trkpt><trkpt lat="46.4689646568" lon="12.0571567398"><ele>2594.74</ele><time>2013-07-21T08:37:18Z</time></trkpt><trkpt lat="46.4689525031" lon="12.0571825560"><ele>2596.66</ele><time>2013-07-21T08:37:30Z</time></trkpt><trkpt lat="46.4689338952" lon="12.0572130661"><ele>2598.58</ele><time>2013-07-21T08:37:39Z</time></trkpt><trkpt lat="46.4689002838" lon="12.0572290756"><ele>2599.54</ele><time>2013-07-21T08:37:50Z</time></trkpt><trkpt lat="46.4689065702" lon="12.0572698954"><ele>2600.98</ele><time>2013-07-21T08:38:01Z</time></trkpt><trkpt lat="46.4688926563" lon="12.0573339332"><ele>2602.43</ele><time>2013-07-21T08:38:11Z</time></trkpt><trkpt lat="46.4689071570" lon="12.0573485177"><ele>2603.39</ele><time>2013-07-21T08:38:20Z</time></trkpt><trkpt lat="46.4688780718" lon="12.0574082807"><ele>2605.31</ele><time>2013-07-21T08:38:33Z</time></trkpt><trkpt lat="46.4688448794" lon="12.0574129745"><ele>2606.75</ele><time>2013-07-21T08:38:43Z</time></trkpt><trkpt lat="46.4688663371" lon="12.0574380364"><ele>2607.71</ele><time>2013-07-21T08:38:52Z</time></trkpt><trkpt lat="46.4688661695" lon="12.0574435685"><ele>2608.19</ele><time>2013-07-21T08:38:54Z</time></trkpt><trkpt lat="46.4688779879" lon="12.0574588235"><ele>2608.67</ele><time>2013-07-21T08:39:04Z</time></trkpt><trkpt lat="46.4688909799" lon="12.0574998949"><ele>2609.16</ele><time>2013-07-21T08:39:16Z</time></trkpt><trkpt lat="46.4689118508" lon="12.0575495996"><ele>2611.56</ele><time>2013-07-21T08:39:26Z</time></trkpt><trkpt lat="46.4688997809" lon="12.0575855579"><ele>2612.52</ele><time>2013-07-21T08:39:34Z</time></trkpt><trkpt lat="46.4689151198" lon="12.0576498471"><ele>2613.48</ele><time>2013-07-21T08:39:43Z</time></trkpt><trkpt lat="46.4688929915" lon="12.0576535352"><ele>2615.40</ele><time>2013-07-21T08:39:53Z</time></trkpt><trkpt lat="46.4688614756" lon="12.0576801058"><ele>2616.85</ele><time>2013-07-21T08:40:03Z</time></trkpt><trkpt lat="46.4688263554" lon="12.0576877333"><ele>2618.29</ele><time>2013-07-21T08:40:12Z</time></trkpt><trkpt lat="46.4688052330" lon="12.0577235240"><ele>2619.73</ele><time>2013-07-21T08:40:23Z</time></trkpt><trkpt lat="46.4687649161" lon="12.0577802695"><ele>2621.17</ele><time>2013-07-21T08:40:33Z</time></trkpt><trkpt lat="46.4687325619" lon="12.0577628352"><ele>2623.09</ele><time>2013-07-21T08:40:42Z</time></trkpt><trkpt lat="46.4686992019" lon="12.0577503461"><ele>2624.54</ele><time>2013-07-21T08:40:53Z</time></trkpt><trkpt lat="46.4686885569" lon="12.0577588119"><ele>2624.54</ele><time>2013-07-21T08:40:55Z</time></trkpt><trkpt lat="46.4686263632" lon="12.0577887353"><ele>2626.46</ele><time>2013-07-21T08:41:06Z</time></trkpt><trkpt lat="46.4686092641" lon="12.0577947702"><ele>2627.42</ele><time>2013-07-21T08:41:18Z</time></trkpt><trkpt lat="46.4685723837" lon="12.0578430500"><ele>2629.82</ele><time>2013-07-21T08:41:28Z</time></trkpt><trkpt lat="46.4685526025" lon="12.0578852948"><ele>2631.75</ele><time>2013-07-21T08:41:39Z</time></trkpt><trkpt lat="46.4685315639" lon="12.0579034835"><ele>2632.71</ele><time>2013-07-21T08:41:52Z</time></trkpt><trkpt lat="46.4685230143" lon="12.0579195768"><ele>2634.15</ele><time>2013-07-21T08:42:02Z</time></trkpt><trkpt lat="46.4685028978" lon="12.0579515118"><ele>2635.59</ele><time>2013-07-21T08:42:13Z</time></trkpt><trkpt lat="46.4684697054" lon="12.0580261946"><ele>2637.51</ele><time>2013-07-21T08:42:25Z</time></trkpt><trkpt lat="46.4684303943" lon="12.0581090078"><ele>2638.96</ele><time>2013-07-21T08:42:36Z</time></trkpt><trkpt lat="46.4683973696" lon="12.0581352431"><ele>2640.40</ele><time>2013-07-21T08:42:47Z</time></trkpt><trkpt lat="46.4683889039" lon="12.0581714530"><ele>2641.84</ele><time>2013-07-21T08:42:56Z</time></trkpt><trkpt lat="46.4683613274" lon="12.0581799187"><ele>2643.76</ele><time>2013-07-21T08:43:06Z</time></trkpt><trkpt lat="46.4683543704" lon="12.0581794996"><ele>2645.69</ele><time>2013-07-21T08:43:19Z</time></trkpt><trkpt lat="46.4682908356" lon="12.0581664238"><ele>2647.13</ele><time>2013-07-21T08:43:29Z</time></trkpt><trkpt lat="46.4682500158" lon="12.0581902284"><ele>2648.57</ele><time>2013-07-21T08:43:38Z</time></trkpt><trkpt lat="46.4682105370" lon="12.0582065731"><ele>2649.53</ele><time>2013-07-21T08:43:47Z</time></trkpt><trkpt lat="46.4682019874" lon="12.0582348201"><ele>2650.97</ele><time>2013-07-21T08:43:57Z</time></trkpt><trkpt lat="46.4681949466" lon="12.0582720358"><ele>2652.90</ele><time>2013-07-21T08:44:08Z</time></trkpt><trkpt lat="46.4681538753" lon="12.0582949184"><ele>2653.86</ele><time>2013-07-21T08:44:18Z</time></trkpt><trkpt lat="46.4681123011" lon="12.0583181363"><ele>2654.82</ele><time>2013-07-21T08:44:26Z</time></trkpt><trkpt lat="46.4680783544" lon="12.0583116822"><ele>2655.78</ele><time>2013-07-21T08:44:36Z</time></trkpt><trkpt lat="46.4680644404" lon="12.0583150350"><ele>2658.18</ele><time>2013-07-21T08:44:45Z</time></trkpt><trkpt lat="46.4680439886" lon="12.0583400968"><ele>2658.66</ele><time>2013-07-21T08:44:55Z</time></trkpt><trkpt lat="46.4680443238" lon="12.0583437011"><ele>2659.62</ele><time>2013-07-21T08:45:02Z</time></trkpt><trkpt lat="46.4680443238" lon="12.0583437011"><ele>2659.62</ele><time>2013-07-21T08:45:21Z</time></trkpt><trkpt lat="46.4680414740" lon="12.0583439525"><ele>2659.62</ele><time>2013-07-21T08:45:32Z</time></trkpt><trkpt lat="46.4680403844" lon="12.0583385043"><ele>2659.14</ele><time>2013-07-21T08:45:48Z</time></trkpt><trkpt lat="46.4680409711" lon="12.0583344810"><ele>2658.66</ele><time>2013-07-21T08:46:01Z</time></trkpt><trkpt lat="46.4680409711" lon="12.0583344810"><ele>2659.14</ele><time>2013-07-21T08:46:23Z</time></trkpt><trkpt lat="46.4680404682" lon="12.0583328884"><ele>2659.14</ele><time>2013-07-21T08:46:47Z</time></trkpt><trkpt lat="46.4680392947" lon="12.0583306253"><ele>2659.14</ele><time>2013-07-21T08:47:13Z</time></trkpt><trkpt lat="46.4680392947" lon="12.0583306253"><ele>2659.14</ele><time>2013-07-21T08:47:35Z</time></trkpt><trkpt lat="46.4680394623" lon="12.0583287813"><ele>2659.62</ele><time>2013-07-21T08:47:58Z</time></trkpt><trkpt lat="46.4680394623" lon="12.0583287813"><ele>2659.14</ele><time>2013-07-21T08:48:23Z</time></trkpt><trkpt lat="46.4680402167" lon="12.0583299547"><ele>2659.62</ele><time>2013-07-21T08:48:50Z</time></trkpt><trkpt lat="46.4680415578" lon="12.0583271049"><ele>2659.14</ele><time>2013-07-21T08:49:15Z</time></trkpt><trkpt lat="46.4680415578" lon="12.0583271049"><ele>2659.62</ele><time>2013-07-21T08:49:45Z</time></trkpt><trkpt lat="46.4680413064" lon="12.0583260152"><ele>2659.62</ele><time>2013-07-21T08:50:13Z</time></trkpt><trkpt lat="46.4680428151" lon="12.0583269373"><ele>2659.62</ele><time>2013-07-21T08:50:43Z</time></trkpt><trkpt lat="46.4680428151" lon="12.0583269373"><ele>2659.62</ele><time>2013-07-21T08:51:06Z</time></trkpt><trkpt lat="46.4680437371" lon="12.0583275240"><ele>2659.62</ele><time>2013-07-21T08:51:28Z</time></trkpt><trkpt lat="46.4680438209" lon="12.0583270211"><ele>2659.62</ele><time>2013-07-21T08:51:56Z</time></trkpt><trkpt lat="46.4680438209" lon="12.0583270211"><ele>2659.62</ele><time>2013-07-21T08:52:25Z</time></trkpt><trkpt lat="46.4680449944" lon="12.0583281107"><ele>2659.62</ele><time>2013-07-21T08:52:48Z</time></trkpt><trkpt lat="46.4680448268" lon="12.0583286136"><ele>2659.62</ele><time>2013-07-21T08:53:10Z</time></trkpt><trkpt lat="46.4680448268" lon="12.0583286136"><ele>2660.11</ele><time>2013-07-21T08:53:32Z</time></trkpt><trkpt lat="46.4680453297" lon="12.0583278593"><ele>2659.62</ele><time>2013-07-21T08:54:02Z</time></trkpt><trkpt lat="46.4680453297" lon="12.0583278593"><ele>2660.11</ele><time>2013-07-21T08:54:28Z</time></trkpt><trkpt lat="46.4680468384" lon="12.0583276916"><ele>2659.62</ele><time>2013-07-21T08:54:50Z</time></trkpt><trkpt lat="46.4680471737" lon="12.0583289489"><ele>2659.62</ele><time>2013-07-21T08:55:17Z</time></trkpt><trkpt lat="46.4680471737" lon="12.0583289489"><ele>2660.11</ele><time>2013-07-21T08:55:45Z</time></trkpt><trkpt lat="46.4680472575" lon="12.0583294518"><ele>2660.59</ele><time>2013-07-21T08:56:14Z</time></trkpt><trkpt lat="46.4680459164" lon="12.0583286975"><ele>2660.11</ele><time>2013-07-21T08:56:43Z</time></trkpt><trkpt lat="46.4680468384" lon="12.0583299547"><ele>2660.59</ele><time>2013-07-21T08:57:10Z</time></trkpt><trkpt lat="46.4680468384" lon="12.0583299547"><ele>2660.59</ele><time>2013-07-21T08:57:34Z</time></trkpt><trkpt lat="46.4680473413" lon="12.0583291166"><ele>2661.07</ele><time>2013-07-21T08:58:01Z</time></trkpt><trkpt lat="46.4680473413" lon="12.0583291166"><ele>2660.59</ele><time>2013-07-21T08:58:28Z</time></trkpt><trkpt lat="46.4680463355" lon="12.0583276078"><ele>2661.07</ele><time>2013-07-21T08:58:56Z</time></trkpt><trkpt lat="46.4680469222" lon="12.0583273564"><ele>2660.59</ele><time>2013-07-21T08:59:24Z</time></trkpt><trkpt lat="46.4680464193" lon="12.0583281107"><ele>2661.07</ele><time>2013-07-21T08:59:54Z</time></trkpt><trkpt lat="46.4680464193" lon="12.0583281107"><ele>2661.07</ele><time>2013-07-21T09:00:21Z</time></trkpt><trkpt lat="46.4680461679" lon="12.0583281107"><ele>2661.07</ele><time>2013-07-21T09:00:51Z</time></trkpt><trkpt lat="46.4680466708" lon="12.0583266020"><ele>2660.59</ele><time>2013-07-21T09:01:19Z</time></trkpt><trkpt lat="46.4680466708" lon="12.0583266020"><ele>2661.07</ele><time>2013-07-21T09:01:49Z</time></trkpt><trkpt lat="46.4680452459" lon="12.0583259314"><ele>2661.07</ele><time>2013-07-21T09:02:18Z</time></trkpt><trkpt lat="46.4680454135" lon="12.0583236683"><ele>2660.59</ele><time>2013-07-21T09:02:46Z</time></trkpt><trkpt lat="46.4680468384" lon="12.0583266858"><ele>2661.07</ele><time>2013-07-21T09:03:17Z</time></trkpt><trkpt lat="46.4680468384" lon="12.0583266858"><ele>2660.59</ele><time>2013-07-21T09:03:44Z</time></trkpt><trkpt lat="46.4680468384" lon="12.0583260152"><ele>2661.07</ele><time>2013-07-21T09:04:11Z</time></trkpt><trkpt lat="46.4680465870" lon="12.0583245903"><ele>2660.59</ele><time>2013-07-21T09:04:40Z</time></trkpt><trkpt lat="46.4680465870" lon="12.0583245903"><ele>2661.07</ele><time>2013-07-21T09:05:07Z</time></trkpt><trkpt lat="46.4680456650" lon="12.0583245065"><ele>2661.07</ele><time>2013-07-21T09:05:39Z</time></trkpt><trkpt lat="46.4680443238" lon="12.0583235007"><ele>2661.07</ele><time>2013-07-21T09:06:09Z</time></trkpt><trkpt lat="46.4680447429" lon="12.0583260152"><ele>2661.07</ele><time>2013-07-21T09:06:34Z</time></trkpt><trkpt lat="46.4680447429" lon="12.0583260152"><ele>2661.07</ele><time>2013-07-21T09:07:03Z</time></trkpt><trkpt lat="46.4680453297" lon="12.0583268534"><ele>2661.55</ele><time>2013-07-21T09:07:23Z</time></trkpt><trkpt lat="46.4680453297" lon="12.0583268534"><ele>2661.07</ele><time>2013-07-21T09:07:45Z</time></trkpt><trkpt lat="46.4680436533" lon="12.0583276916"><ele>2662.99</ele><time>2013-07-21T09:08:03Z</time></trkpt><trkpt lat="46.4680436533" lon="12.0583276916"><ele>2662.03</ele><time>2013-07-21T09:08:04Z</time></trkpt><trkpt lat="46.4680457488" lon="12.0583219919"><ele>2666.35</ele><time>2013-07-21T09:08:10Z</time></trkpt><trkpt lat="46.4680457488" lon="12.0583219919"><ele>2665.87</ele><time>2013-07-21T09:08:11Z</time></trkpt><trkpt lat="46.4680457488" lon="12.0583219919"><ele>2662.51</ele><time>2013-07-21T09:08:12Z</time></trkpt><trkpt lat="46.4680457488" lon="12.0583219919"><ele>2661.55</ele><time>2013-07-21T09:08:14Z</time></trkpt><trkpt lat="46.4680457488" lon="12.0583219919"><ele>2658.18</ele><time>2013-07-21T09:08:15Z</time></trkpt><trkpt lat="46.4680457488" lon="12.0583219919"><ele>2662.99</ele><time>2013-07-21T09:08:16Z</time></trkpt><trkpt lat="46.4680457488" lon="12.0583219919"><ele>2661.07</ele><time>2013-07-21T09:08:20Z</time></trkpt><trkpt lat="46.4680457488" lon="12.0583219919"><ele>2664.91</ele><time>2013-07-21T09:08:22Z</time></trkpt><trkpt lat="46.4680457488" lon="12.0583219919"><ele>2663.47</ele><time>2013-07-21T09:08:23Z</time></trkpt><trkpt lat="46.4680457488" lon="12.0583219919"><ele>2662.03</ele><time>2013-07-21T09:08:26Z</time></trkpt><trkpt lat="46.4680457488" lon="12.0583219919"><ele>2662.03</ele><time>2013-07-21T09:08:42Z</time></trkpt><trkpt lat="46.4680475090" lon="12.0583226625"><ele>2662.03</ele><time>2013-07-21T09:09:08Z</time></trkpt><trkpt lat="46.4680475090" lon="12.0583226625"><ele>2663.95</ele><time>2013-07-21T09:09:13Z</time></trkpt><trkpt lat="46.4680475090" lon="12.0583226625"><ele>2662.03</ele><time>2013-07-21T09:09:15Z</time></trkpt><trkpt lat="46.4680475090" lon="12.0583244227"><ele>2662.03</ele><time>2013-07-21T09:09:29Z</time></trkpt><trkpt lat="46.4680475090" lon="12.0583244227"><ele>2662.03</ele><time>2013-07-21T09:09:57Z</time></trkpt><trkpt lat="46.4680484310" lon="12.0583249256"><ele>2662.51</ele><time>2013-07-21T09:10:20Z</time></trkpt><trkpt lat="46.4680480957" lon="12.0583240036"><ele>2662.03</ele><time>2013-07-21T09:10:48Z</time></trkpt><trkpt lat="46.4680480957" lon="12.0583240036"><ele>2662.03</ele><time>2013-07-21T09:11:22Z</time></trkpt><trkpt lat="46.4680490177" lon="12.0583241712"><ele>2662.03</ele><time>2013-07-21T09:11:56Z</time></trkpt><trkpt lat="46.4680506103" lon="12.0583230816"><ele>2662.99</ele><time>2013-07-21T09:12:25Z</time></trkpt><trkpt lat="46.4680532087" lon="12.0583221596"><ele>2662.51</ele><time>2013-07-21T09:12:58Z</time></trkpt><trkpt lat="46.4680522867" lon="12.0583250932"><ele>2662.51</ele><time>2013-07-21T09:13:27Z</time></trkpt><trkpt lat="46.4680522867" lon="12.0583250932"><ele>2662.51</ele><time>2013-07-21T09:13:52Z</time></trkpt><trkpt lat="46.4680498559" lon="12.0583255962"><ele>2662.99</ele><time>2013-07-21T09:14:27Z</time></trkpt><trkpt lat="46.4680487663" lon="12.0583271049"><ele>2662.99</ele><time>2013-07-21T09:14:54Z</time></trkpt><trkpt lat="46.4680487663" lon="12.0583271049"><ele>2662.99</ele><time>2013-07-21T09:15:20Z</time></trkpt><trkpt lat="46.4680485148" lon="12.0583286975"><ele>2662.51</ele><time>2013-07-21T09:15:45Z</time></trkpt><trkpt lat="46.4680484310" lon="12.0583279431"><ele>2662.99</ele><time>2013-07-21T09:16:13Z</time></trkpt><trkpt lat="46.4680484310" lon="12.0583279431"><ele>2662.99</ele><time>2013-07-21T09:16:36Z</time></trkpt><trkpt lat="46.4680485148" lon="12.0583297871"><ele>2662.99</ele><time>2013-07-21T09:17:00Z</time></trkpt><trkpt lat="46.4680485148" lon="12.0583297871"><ele>2662.99</ele><time>2013-07-21T09:17:25Z</time></trkpt><trkpt lat="46.4680481795" lon="12.0583302900"><ele>2648.57</ele><time>2013-07-21T09:17:37Z</time></trkpt><trkpt lat="46.4680481795" lon="12.0583302900"><ele>2653.38</ele><time>2013-07-21T09:17:38Z</time></trkpt><trkpt lat="46.4680481795" lon="12.0583302900"><ele>2685.10</ele><time>2013-07-21T09:17:39Z</time></trkpt><trkpt lat="46.4680481795" lon="12.0583302900"><ele>2667.31</ele><time>2013-07-21T09:17:40Z</time></trkpt><trkpt lat="46.4680481795" lon="12.0583302900"><ele>2663.95</ele><time>2013-07-21T09:17:41Z</time></trkpt><trkpt lat="46.4680598304" lon="12.0583453774"><ele>2663.47</ele><time>2013-07-21T09:17:51Z</time></trkpt><trkpt lat="46.4680910110" lon="12.0583598781"><ele>2662.99</ele><time>2013-07-21T09:18:00Z</time></trkpt><trkpt lat="46.4680910110" lon="12.0583598781"><ele>2662.03</ele><time>2013-07-21T09:18:15Z</time></trkpt><trkpt lat="46.4680910110" lon="12.0583598781"><ele>2662.03</ele><time>2013-07-21T09:18:28Z</time></trkpt><trkpt lat="46.4680907596" lon="12.0583561063"><ele>2660.59</ele><time>2013-07-21T09:18:40Z</time></trkpt><trkpt lat="46.4680907596" lon="12.0583561063"><ele>2660.11</ele><time>2013-07-21T09:18:51Z</time></trkpt><trkpt lat="46.4681415539" lon="12.0583361574"><ele>2659.14</ele><time>2013-07-21T09:19:03Z</time></trkpt><trkpt lat="46.4681761712" lon="12.0583136100"><ele>2657.70</ele><time>2013-07-21T09:19:10Z</time></trkpt><trkpt lat="46.4681791887" lon="12.0582267735"><ele>2654.34</ele><time>2013-07-21T09:19:19Z</time></trkpt><trkpt lat="46.4682384487" lon="12.0582020469"><ele>2652.42</ele><time>2013-07-21T09:19:28Z</time></trkpt><trkpt lat="46.4682742395" lon="12.0582038071"><ele>2650.97</ele><time>2013-07-21T09:19:32Z</time></trkpt><trkpt lat="46.4683359303" lon="12.0581717044"><ele>2649.05</ele><time>2013-07-21T09:19:39Z</time></trkpt><trkpt lat="46.4683553763" lon="12.0581714530"><ele>2648.57</ele><time>2013-07-21T09:19:41Z</time></trkpt><trkpt lat="46.4683720563" lon="12.0581579581"><ele>2647.13</ele><time>2013-07-21T09:19:45Z</time></trkpt><trkpt lat="46.4684013091" lon="12.0581147913"><ele>2645.21</ele><time>2013-07-21T09:19:51Z</time></trkpt><trkpt lat="46.4684404526" lon="12.0580159687"><ele>2642.32</ele><time>2013-07-21T09:20:00Z</time></trkpt><trkpt lat="46.4684580546" lon="12.0579690300"><ele>2641.36</ele><time>2013-07-21T09:20:04Z</time></trkpt><trkpt lat="46.4684722200" lon="12.0579525176"><ele>2640.88</ele><time>2013-07-21T09:20:06Z</time></trkpt><trkpt lat="46.4685375988" lon="12.0579127036"><ele>2637.99</ele><time>2013-07-21T09:20:16Z</time></trkpt><trkpt lat="46.4685614873" lon="12.0578520186"><ele>2636.07</ele><time>2013-07-21T09:20:24Z</time></trkpt><trkpt lat="46.4685822744" lon="12.0578303095"><ele>2634.15</ele><time>2013-07-21T09:20:27Z</time></trkpt><trkpt lat="46.4686003793" lon="12.0578137133"><ele>2633.67</ele><time>2013-07-21T09:20:29Z</time></trkpt><trkpt lat="46.4686850365" lon="12.0577627514"><ele>2631.27</ele><time>2013-07-21T09:20:39Z</time></trkpt><trkpt lat="46.4687122777" lon="12.0577404555"><ele>2630.30</ele><time>2013-07-21T09:20:44Z</time></trkpt><trkpt lat="46.4687386807" lon="12.0577399526"><ele>2628.86</ele><time>2013-07-21T09:20:48Z</time></trkpt><trkpt lat="46.4687786624" lon="12.0577262063"><ele>2626.94</ele><time>2013-07-21T09:20:55Z</time></trkpt><trkpt lat="46.4687793329" lon="12.0577158127"><ele>2626.46</ele><time>2013-07-21T09:20:56Z</time></trkpt><trkpt lat="46.4687991980" lon="12.0576704666"><ele>2625.50</ele><time>2013-07-21T09:21:00Z</time></trkpt><trkpt lat="46.4688267745" lon="12.0576884877"><ele>2624.06</ele><time>2013-07-21T09:21:03Z</time></trkpt><trkpt lat="46.4688601345" lon="12.0576503500"><ele>2622.61</ele><time>2013-07-21T09:21:11Z</time></trkpt><trkpt lat="46.4689170476" lon="12.0576329995"><ele>2619.73</ele><time>2013-07-21T09:21:21Z</time></trkpt><trkpt lat="46.4689109288" lon="12.0575834624"><ele>2618.29</ele><time>2013-07-21T09:21:28Z</time></trkpt><trkpt lat="46.4688909799" lon="12.0574782696"><ele>2614.92</ele><time>2013-07-21T09:21:38Z</time></trkpt><trkpt lat="46.4689063188" lon="12.0573933609"><ele>2612.04</ele><time>2013-07-21T09:21:44Z</time></trkpt><trkpt lat="46.4689228311" lon="12.0573911816"><ele>2611.56</ele><time>2013-07-21T09:21:46Z</time></trkpt><trkpt lat="46.4689287823" lon="12.0573413931"><ele>2610.60</ele><time>2013-07-21T09:21:51Z</time></trkpt><trkpt lat="46.4689245913" lon="12.0573118050"><ele>2608.67</ele><time>2013-07-21T09:21:58Z</time></trkpt><trkpt lat="46.4689166285" lon="12.0572833903"><ele>2607.71</ele><time>2013-07-21T09:22:00Z</time></trkpt><trkpt lat="46.4689005353" lon="12.0572179276"><ele>2605.79</ele><time>2013-07-21T09:22:08Z</time></trkpt><trkpt lat="46.4688554406" lon="12.0571996551"><ele>2603.87</ele><time>2013-07-21T09:22:16Z</time></trkpt><trkpt lat="46.4688161295" lon="12.0571752638"><ele>2602.91</ele><time>2013-07-21T09:22:21Z</time></trkpt><trkpt lat="46.4687389322" lon="12.0571203623"><ele>2601.46</ele><time>2013-07-21T09:22:31Z</time></trkpt><trkpt lat="46.4687275328" lon="12.0570818894"><ele>2600.50</ele><time>2013-07-21T09:22:39Z</time></trkpt><trkpt lat="46.4687188156" lon="12.0570531394"><ele>2599.06</ele><time>2013-07-21T09:22:49Z</time></trkpt><trkpt lat="46.4687043987" lon="12.0570096374"><ele>2597.62</ele><time>2013-07-21T09:22:58Z</time></trkpt><trkpt lat="46.4687043149" lon="12.0570072066"><ele>2595.22</ele><time>2013-07-21T09:23:06Z</time></trkpt><trkpt lat="46.4686676022" lon="12.0569450967"><ele>2593.77</ele><time>2013-07-21T09:23:13Z</time></trkpt><trkpt lat="46.4686651714" lon="12.0568843279"><ele>2591.85</ele><time>2013-07-21T09:23:21Z</time></trkpt><trkpt lat="46.4686589688" lon="12.0568346232"><ele>2590.89</ele><time>2013-07-21T09:23:26Z</time></trkpt><trkpt lat="46.4686792530" lon="12.0567883551"><ele>2589.93</ele><time>2013-07-21T09:23:36Z</time></trkpt><trkpt lat="46.4687126968" lon="12.0567739382"><ele>2589.45</ele><time>2013-07-21T09:23:43Z</time></trkpt><trkpt lat="46.4687177259" lon="12.0567689091"><ele>2588.97</ele><time>2013-07-21T09:23:44Z</time></trkpt><trkpt lat="46.4687228389" lon="12.0567017701"><ele>2585.60</ele><time>2013-07-21T09:23:54Z</time></trkpt><trkpt lat="46.4687302988" lon="12.0566397440"><ele>2584.64</ele><time>2013-07-21T09:24:02Z</time></trkpt><trkpt lat="46.4687706158" lon="12.0566643029"><ele>2582.72</ele><time>2013-07-21T09:24:12Z</time></trkpt><trkpt lat="46.4687684365" lon="12.0566414203"><ele>2582.24</ele><time>2013-07-21T09:24:16Z</time></trkpt><trkpt lat="46.4688026346" lon="12.0566135924"><ele>2579.84</ele><time>2013-07-21T09:24:26Z</time></trkpt><trkpt lat="46.4688204043" lon="12.0565963257"><ele>2579.35</ele><time>2013-07-21T09:24:30Z</time></trkpt><trkpt lat="46.4688428678" lon="12.0565845072"><ele>2577.91</ele><time>2013-07-21T09:24:39Z</time></trkpt><trkpt lat="46.4688468911" lon="12.0565801486"><ele>2576.95</ele><time>2013-07-21T09:24:46Z</time></trkpt><trkpt lat="46.4688512497" lon="12.0565663185"><ele>2575.99</ele><time>2013-07-21T09:24:55Z</time></trkpt><trkpt lat="46.4689042233" lon="12.0565158594"><ele>2573.59</ele><time>2013-07-21T09:25:06Z</time></trkpt><trkpt lat="46.4689151198" lon="12.0564977545"><ele>2572.63</ele><time>2013-07-21T09:25:13Z</time></trkpt><trkpt lat="46.4689168800" lon="12.0564918872"><ele>2571.18</ele><time>2013-07-21T09:25:21Z</time></trkpt><trkpt lat="46.4689044748" lon="12.0564377401"><ele>2569.74</ele><time>2013-07-21T09:25:30Z</time></trkpt><trkpt lat="46.4689165447" lon="12.0563998539"><ele>2568.30</ele><time>2013-07-21T09:25:39Z</time></trkpt><trkpt lat="46.4688975178" lon="12.0563736185"><ele>2566.38</ele><time>2013-07-21T09:25:49Z</time></trkpt><trkpt lat="46.4688719530" lon="12.0563431922"><ele>2565.42</ele><time>2013-07-21T09:25:56Z</time></trkpt><trkpt lat="46.4688368328" lon="12.0562856924"><ele>2562.53</ele><time>2013-07-21T09:26:06Z</time></trkpt><trkpt lat="46.4688341506" lon="12.0562843513"><ele>2562.05</ele><time>2013-07-21T09:26:07Z</time></trkpt><trkpt lat="46.4688096754" lon="12.0562719461"><ele>2560.61</ele><time>2013-07-21T09:26:17Z</time></trkpt><trkpt lat="46.4687784109" lon="12.0562488958"><ele>2559.65</ele><time>2013-07-21T09:26:22Z</time></trkpt><trkpt lat="46.4687397704" lon="12.0561841875"><ele>2557.73</ele><time>2013-07-21T09:26:32Z</time></trkpt><trkpt lat="46.4686962683" lon="12.0561441220"><ele>2554.36</ele><time>2013-07-21T09:26:44Z</time></trkpt><trkpt lat="46.4686761517" lon="12.0560706127"><ele>2552.44</ele><time>2013-07-21T09:26:53Z</time></trkpt><trkpt lat="46.4686731342" lon="12.0560691040"><ele>2552.44</ele><time>2013-07-21T09:26:54Z</time></trkpt><trkpt lat="46.4686512575" lon="12.0560115203"><ele>2549.55</ele><time>2013-07-21T09:27:05Z</time></trkpt><trkpt lat="46.4686225913" lon="12.0559598878"><ele>2547.15</ele><time>2013-07-21T09:27:16Z</time></trkpt><trkpt lat="46.4685759880" lon="12.0559546072"><ele>2544.27</ele><time>2013-07-21T09:27:24Z</time></trkpt><trkpt lat="46.4685373474" lon="12.0559228398"><ele>2541.86</ele><time>2013-07-21T09:27:33Z</time></trkpt><trkpt lat="46.4685194101" lon="12.0558920782"><ele>2540.90</ele><time>2013-07-21T09:27:42Z</time></trkpt><trkpt lat="46.4685320668" lon="12.0558515098"><ele>2539.94</ele><time>2013-07-21T09:27:52Z</time></trkpt><trkpt lat="46.4685298875" lon="12.0558317285"><ele>2539.46</ele><time>2013-07-21T09:27:56Z</time></trkpt><trkpt lat="46.4685215894" lon="12.0558038168"><ele>2538.50</ele><time>2013-07-21T09:28:04Z</time></trkpt><trkpt lat="46.4685231820" lon="12.0557650924"><ele>2536.10</ele><time>2013-07-21T09:28:11Z</time></trkpt><trkpt lat="46.4685221761" lon="12.0557371806"><ele>2533.69</ele><time>2013-07-21T09:28:19Z</time></trkpt><trkpt lat="46.4685236011" lon="12.0557282120"><ele>2533.69</ele><time>2013-07-21T09:28:20Z</time></trkpt><trkpt lat="46.4685514290" lon="12.0556615759"><ele>2532.25</ele><time>2013-07-21T09:28:28Z</time></trkpt><trkpt lat="46.4685584698" lon="12.0556612406"><ele>2531.29</ele><time>2013-07-21T09:28:35Z</time></trkpt><trkpt lat="46.4685606491" lon="12.0556614082"><ele>2532.25</ele><time>2013-07-21T09:28:46Z</time></trkpt><trkpt lat="46.4685528539" lon="12.0556655992"><ele>2532.25</ele><time>2013-07-21T09:29:00Z</time></trkpt><trkpt lat="46.4685149677" lon="12.0556514338"><ele>2529.85</ele><time>2013-07-21T09:29:10Z</time></trkpt><trkpt lat="46.4684920851" lon="12.0556179900"><ele>2527.92</ele><time>2013-07-21T09:29:19Z</time></trkpt><trkpt lat="46.4684776682" lon="12.0555711351"><ele>2526.00</ele><time>2013-07-21T09:29:26Z</time></trkpt><trkpt lat="46.4684853796" lon="12.0554843824"><ele>2524.56</ele><time>2013-07-21T09:29:35Z</time></trkpt><trkpt lat="46.4684883133" lon="12.0554475859"><ele>2523.60</ele><time>2013-07-21T09:29:40Z</time></trkpt><trkpt lat="46.4685425442" lon="12.0553811174"><ele>2520.23</ele><time>2013-07-21T09:29:50Z</time></trkpt><trkpt lat="46.4685051609" lon="12.0553069375"><ele>2517.83</ele><time>2013-07-21T09:30:00Z</time></trkpt><trkpt lat="46.4684857987" lon="12.0552941132"><ele>2516.87</ele><time>2013-07-21T09:30:03Z</time></trkpt><trkpt lat="46.4685212541" lon="12.0552203525"><ele>2514.47</ele><time>2013-07-21T09:30:12Z</time></trkpt><trkpt lat="46.4685693663" lon="12.0551745873"><ele>2511.58</ele><time>2013-07-21T09:30:22Z</time></trkpt><trkpt lat="46.4685841184" lon="12.0551719889"><ele>2510.62</ele><time>2013-07-21T09:30:24Z</time></trkpt><trkpt lat="46.4685871359" lon="12.0551700611"><ele>2509.66</ele><time>2013-07-21T09:30:29Z</time></trkpt><trkpt lat="46.4686028939" lon="12.0551315881"><ele>2508.22</ele><time>2013-07-21T09:30:36Z</time></trkpt><trkpt lat="46.4686441328" lon="12.0551436581"><ele>2506.77</ele><time>2013-07-21T09:30:44Z</time></trkpt><trkpt lat="46.4686868805" lon="12.0551508665"><ele>2504.85</ele><time>2013-07-21T09:30:51Z</time></trkpt><trkpt lat="46.4687411953" lon="12.0551420655"><ele>2502.45</ele><time>2013-07-21T09:31:00Z</time></trkpt><trkpt lat="46.4687490743" lon="12.0551348571"><ele>2501.49</ele><time>2013-07-21T09:31:02Z</time></trkpt><trkpt lat="46.4687770698" lon="12.0551198535"><ele>2500.05</ele><time>2013-07-21T09:31:07Z</time></trkpt><trkpt lat="46.4688101783" lon="12.0551077835"><ele>2497.64</ele><time>2013-07-21T09:31:14Z</time></trkpt><trkpt lat="46.4688229188" lon="12.0551489387"><ele>2496.20</ele><time>2013-07-21T09:31:26Z</time></trkpt><trkpt lat="46.4688364975" lon="12.0551564824"><ele>2495.24</ele><time>2013-07-21T09:31:28Z</time></trkpt><trkpt lat="46.4688378386" lon="12.0551653672"><ele>2494.76</ele><time>2013-07-21T09:31:29Z</time></trkpt><trkpt lat="46.4688209072" lon="12.0551719889"><ele>2494.76</ele><time>2013-07-21T09:31:37Z</time></trkpt><trkpt lat="46.4688271936" lon="12.0551528782"><ele>2495.72</ele><time>2013-07-21T09:31:49Z</time></trkpt><trkpt lat="46.4688271936" lon="12.0551528782"><ele>2495.24</ele><time>2013-07-21T09:32:13Z</time></trkpt><trkpt lat="46.4688239247" lon="12.0551643614"><ele>2494.76</ele><time>2013-07-21T09:32:23Z</time></trkpt><trkpt lat="46.4688530937" lon="12.0552105457"><ele>2494.28</ele><time>2013-07-21T09:32:32Z</time></trkpt><trkpt lat="46.4688530937" lon="12.0552105457"><ele>2492.84</ele><time>2013-07-21T09:32:43Z</time></trkpt><trkpt lat="46.4688603021" lon="12.0552123059"><ele>2491.39</ele><time>2013-07-21T09:32:52Z</time></trkpt><trkpt lat="46.4688877109" lon="12.0551916864"><ele>2489.47</ele><time>2013-07-21T09:33:04Z</time></trkpt><trkpt lat="46.4689044748" lon="12.0551936980"><ele>2488.99</ele><time>2013-07-21T09:33:13Z</time></trkpt><trkpt lat="46.4689289499" lon="12.0551745035"><ele>2487.55</ele><time>2013-07-21T09:33:21Z</time></trkpt><trkpt lat="46.4689442888" lon="12.0551693905"><ele>2486.59</ele><time>2013-07-21T09:33:31Z</time></trkpt><trkpt lat="46.4689475577" lon="12.0551807061"><ele>2485.63</ele><time>2013-07-21T09:33:43Z</time></trkpt><trkpt lat="46.4689530898" lon="12.0551852323"><ele>2484.66</ele><time>2013-07-21T09:33:52Z</time></trkpt><trkpt lat="46.4689783193" lon="12.0551785268"><ele>2483.70</ele><time>2013-07-21T09:34:00Z</time></trkpt><trkpt lat="46.4689824264" lon="12.0551838912"><ele>2483.70</ele><time>2013-07-21T09:34:09Z</time></trkpt><trkpt lat="46.4689814206" lon="12.0551828854"><ele>2482.74</ele><time>2013-07-21T09:34:21Z</time></trkpt><trkpt lat="46.4689851925" lon="12.0551835559"><ele>2482.26</ele><time>2013-07-21T09:34:26Z</time></trkpt><trkpt lat="46.4689971786" lon="12.0551647805"><ele>2482.74</ele><time>2013-07-21T09:34:36Z</time></trkpt><trkpt lat="46.4690079074" lon="12.0551600866"><ele>2480.82</ele><time>2013-07-21T09:34:46Z</time></trkpt><trkpt lat="46.4690180495" lon="12.0551434066"><ele>2480.34</ele><time>2013-07-21T09:34:55Z</time></trkpt><trkpt lat="46.4690183010" lon="12.0551444963"><ele>2480.34</ele><time>2013-07-21T09:35:07Z</time></trkpt><trkpt lat="46.4690302033" lon="12.0551478490"><ele>2479.38</ele><time>2013-07-21T09:35:15Z</time></trkpt><trkpt lat="46.4690381661" lon="12.0551339351"><ele>2479.86</ele><time>2013-07-21T09:35:24Z</time></trkpt><trkpt lat="46.4690494817" lon="12.0551458374"><ele>2479.38</ele><time>2013-07-21T09:35:35Z</time></trkpt><trkpt lat="46.4690618031" lon="12.0551341865"><ele>2478.90</ele><time>2013-07-21T09:35:47Z</time></trkpt><trkpt lat="46.4690669999" lon="12.0551176742"><ele>2477.45</ele><time>2013-07-21T09:35:59Z</time></trkpt><trkpt lat="46.4690722805" lon="12.0551171713"><ele>2476.97</ele><time>2013-07-21T09:36:08Z</time></trkpt><trkpt lat="46.4690820873" lon="12.0551253855"><ele>2476.49</ele><time>2013-07-21T09:36:15Z</time></trkpt><trkpt lat="46.4690996055" lon="12.0551784430"><ele>2477.45</ele><time>2013-07-21T09:36:23Z</time></trkpt><trkpt lat="46.4691062272" lon="12.0551933628"><ele>2477.45</ele><time>2013-07-21T09:36:31Z</time></trkpt><trkpt lat="46.4691280201" lon="12.0551832207"><ele>2477.45</ele><time>2013-07-21T09:36:40Z</time></trkpt><trkpt lat="46.4691206440" lon="12.0552242082"><ele>2477.45</ele><time>2013-07-21T09:36:47Z</time></trkpt><trkpt lat="46.4691284392" lon="12.0552234538"><ele>2476.97</ele><time>2013-07-21T09:36:56Z</time></trkpt><trkpt lat="46.4691472147" lon="12.0552217774"><ele>2476.01</ele><time>2013-07-21T09:37:08Z</time></trkpt><trkpt lat="46.4691602066" lon="12.0551747549"><ele>2473.61</ele><time>2013-07-21T09:37:18Z</time></trkpt><trkpt lat="46.4691812452" lon="12.0551525429"><ele>2471.69</ele><time>2013-07-21T09:37:26Z</time></trkpt><trkpt lat="46.4692253340" lon="12.0551285706"><ele>2469.76</ele><time>2013-07-21T09:37:34Z</time></trkpt><trkpt lat="46.4692653995" lon="12.0551388804"><ele>2467.84</ele><time>2013-07-21T09:37:42Z</time></trkpt><trkpt lat="46.4692699257" lon="12.0551168360"><ele>2465.44</ele><time>2013-07-21T09:37:55Z</time></trkpt><trkpt lat="46.4692820795" lon="12.0550952107"><ele>2465.44</ele><time>2013-07-21T09:38:03Z</time></trkpt><trkpt lat="46.4693005197" lon="12.0550381299"><ele>2462.07</ele><time>2013-07-21T09:38:10Z</time></trkpt><trkpt lat="46.4693259168" lon="12.0549879223"><ele>2460.63</ele><time>2013-07-21T09:38:17Z</time></trkpt><trkpt lat="46.4693645574" lon="12.0549753495"><ele>2458.71</ele><time>2013-07-21T09:38:24Z</time></trkpt><trkpt lat="46.4693742804" lon="12.0549566578"><ele>2457.75</ele><time>2013-07-21T09:38:32Z</time></trkpt><trkpt lat="46.4693883620" lon="12.0549094677"><ele>2455.82</ele><time>2013-07-21T09:38:40Z</time></trkpt><trkpt lat="46.4694247395" lon="12.0548677258"><ele>2454.38</ele><time>2013-07-21T09:38:48Z</time></trkpt><trkpt lat="46.4694330376" lon="12.0548710786"><ele>2453.42</ele><time>2013-07-21T09:38:51Z</time></trkpt><trkpt lat="46.4694426768" lon="12.0548791252"><ele>2452.94</ele><time>2013-07-21T09:39:01Z</time></trkpt><trkpt lat="46.4694426768" lon="12.0548791252"><ele>2452.94</ele><time>2013-07-21T09:39:02Z</time></trkpt><trkpt lat="46.4694869332" lon="12.0548196975"><ele>2450.06</ele><time>2013-07-21T09:39:12Z</time></trkpt><trkpt lat="46.4695267472" lon="12.0548171829"><ele>2447.65</ele><time>2013-07-21T09:39:22Z</time></trkpt><trkpt lat="46.4695275016" lon="12.0548263192"><ele>2447.17</ele><time>2013-07-21T09:39:35Z</time></trkpt><trkpt lat="46.4695399068" lon="12.0547813084"><ele>2445.25</ele><time>2013-07-21T09:39:43Z</time></trkpt><trkpt lat="46.4695917908" lon="12.0547874272"><ele>2444.29</ele><time>2013-07-21T09:39:53Z</time></trkpt><trkpt lat="46.4696258213" lon="12.0547215454"><ele>2442.37</ele><time>2013-07-21T09:40:02Z</time></trkpt><trkpt lat="46.4696772024" lon="12.0546785463"><ele>2439.48</ele><time>2013-07-21T09:40:15Z</time></trkpt><trkpt lat="46.4697165973" lon="12.0546338707"><ele>2437.56</ele><time>2013-07-21T09:40:23Z</time></trkpt><trkpt lat="46.4697401505" lon="12.0546189509"><ele>2436.12</ele><time>2013-07-21T09:40:26Z</time></trkpt><trkpt lat="46.4698098879" lon="12.0545539074"><ele>2433.23</ele><time>2013-07-21T09:40:36Z</time></trkpt><trkpt lat="46.4698519651" lon="12.0545277558"><ele>2430.83</ele><time>2013-07-21T09:40:45Z</time></trkpt><trkpt lat="46.4699343592" lon="12.0544768777"><ele>2428.91</ele><time>2013-07-21T09:40:56Z</time></trkpt><trkpt lat="46.4699975587" lon="12.0544163603"><ele>2426.50</ele><time>2013-07-21T09:41:05Z</time></trkpt><trkpt lat="46.4700398874" lon="12.0544177853"><ele>2424.58</ele><time>2013-07-21T09:41:13Z</time></trkpt><trkpt lat="46.4700643625" lon="12.0544035360"><ele>2422.66</ele><time>2013-07-21T09:41:21Z</time></trkpt><trkpt lat="46.4700923581" lon="12.0543511491"><ele>2420.26</ele><time>2013-07-21T09:41:31Z</time></trkpt><trkpt lat="46.4701489359" lon="12.0543296076"><ele>2417.85</ele><time>2013-07-21T09:41:40Z</time></trkpt><trkpt lat="46.4701723214" lon="12.0542980079"><ele>2416.89</ele><time>2013-07-21T09:41:48Z</time></trkpt><trkpt lat="46.4702294022" lon="12.0542949904"><ele>2414.97</ele><time>2013-07-21T09:41:57Z</time></trkpt><trkpt lat="46.4702645224" lon="12.0542679168"><ele>2414.97</ele><time>2013-07-21T09:42:02Z</time></trkpt><trkpt lat="46.4703345951" lon="12.0542362332"><ele>2413.53</ele><time>2013-07-21T09:42:12Z</time></trkpt><trkpt lat="46.4703995548" lon="12.0542198047"><ele>2411.60</ele><time>2013-07-21T09:42:22Z</time></trkpt><trkpt lat="46.4704026561" lon="12.0542116743"><ele>2410.64</ele><time>2013-07-21T09:42:35Z</time></trkpt><trkpt lat="46.4704146422" lon="12.0541981794"><ele>2409.68</ele><time>2013-07-21T09:42:44Z</time></trkpt><trkpt lat="46.4703934360" lon="12.0541370753"><ele>2407.28</ele><time>2013-07-21T09:42:50Z</time></trkpt><trkpt lat="46.4704251196" lon="12.0541013684"><ele>2405.36</ele><time>2013-07-21T09:42:59Z</time></trkpt><trkpt lat="46.4704295620" lon="12.0540908910"><ele>2404.39</ele><time>2013-07-21T09:43:00Z</time></trkpt><trkpt lat="46.4704480860" lon="12.0540514961"><ele>2403.91</ele><time>2013-07-21T09:43:03Z</time></trkpt><trkpt lat="46.4705187455" lon="12.0539784059"><ele>2401.99</ele><time>2013-07-21T09:43:12Z</time></trkpt><trkpt lat="46.4705568831" lon="12.0539398491"><ele>2399.59</ele><time>2013-07-21T09:43:27Z</time></trkpt><trkpt lat="46.4705621637" lon="12.0538822655"><ele>2396.70</ele><time>2013-07-21T09:43:36Z</time></trkpt><trkpt lat="46.4705900755" lon="12.0538456365"><ele>2394.78</ele><time>2013-07-21T09:43:44Z</time></trkpt><trkpt lat="46.4706066716" lon="12.0538358297"><ele>2392.38</ele><time>2013-07-21T09:43:54Z</time></trkpt><trkpt lat="46.4706160594" lon="12.0537891425"><ele>2389.97</ele><time>2013-07-21T09:44:04Z</time></trkpt><trkpt lat="46.4706541132" lon="12.0537540223"><ele>2389.49</ele><time>2013-07-21T09:44:08Z</time></trkpt><trkpt lat="46.4706735592" lon="12.0537468977"><ele>2387.09</ele><time>2013-07-21T09:44:18Z</time></trkpt><trkpt lat="46.4707117807" lon="12.0536979474"><ele>2384.69</ele><time>2013-07-21T09:44:28Z</time></trkpt><trkpt lat="46.4707296342" lon="12.0536735561"><ele>2382.76</ele><time>2013-07-21T09:44:33Z</time></trkpt><trkpt lat="46.4707671013" lon="12.0536929183"><ele>2380.36</ele><time>2013-07-21T09:44:42Z</time></trkpt><trkpt lat="46.4707840327" lon="12.0536656771"><ele>2379.40</ele><time>2013-07-21T09:44:50Z</time></trkpt><trkpt lat="46.4708024729" lon="12.0536575466"><ele>2378.92</ele><time>2013-07-21T09:44:59Z</time></trkpt><trkpt lat="46.4708607271" lon="12.0536302216"><ele>2376.04</ele><time>2013-07-21T09:45:10Z</time></trkpt><trkpt lat="46.4708919916" lon="12.0536093507"><ele>2374.11</ele><time>2013-07-21T09:45:17Z</time></trkpt><trkpt lat="46.4709111024" lon="12.0535667706"><ele>2372.67</ele><time>2013-07-21T09:45:25Z</time></trkpt><trkpt lat="46.4709570352" lon="12.0535119530"><ele>2369.79</ele><time>2013-07-21T09:45:35Z</time></trkpt><trkpt lat="46.4709877130" lon="12.0535006374"><ele>2367.86</ele><time>2013-07-21T09:45:44Z</time></trkpt><trkpt lat="46.4709996991" lon="12.0534946024"><ele>2367.38</ele><time>2013-07-21T09:46:01Z</time></trkpt><trkpt lat="46.4710558578" lon="12.0535276271"><ele>2365.94</ele><time>2013-07-21T09:46:12Z</time></trkpt><trkpt lat="46.4710599650" lon="12.0535292197"><ele>2364.98</ele><time>2013-07-21T09:46:21Z</time></trkpt><trkpt lat="46.4710869547" lon="12.0535739791"><ele>2363.54</ele><time>2013-07-21T09:46:31Z</time></trkpt><trkpt lat="46.4711112622" lon="12.0535650104"><ele>2362.58</ele><time>2013-07-21T09:46:38Z</time></trkpt><trkpt lat="46.4711097535" lon="12.0535589755"><ele>2360.65</ele><time>2013-07-21T09:46:43Z</time></trkpt><trkpt lat="46.4711325523" lon="12.0535415411"><ele>2359.69</ele><time>2013-07-21T09:46:48Z</time></trkpt><trkpt lat="46.4711659122" lon="12.0535187423"><ele>2357.77</ele><time>2013-07-21T09:46:56Z</time></trkpt><trkpt lat="46.4712019544" lon="12.0535279624"><ele>2354.41</ele><time>2013-07-21T09:47:05Z</time></trkpt><trkpt lat="46.4712250885" lon="12.0535455644"><ele>2353.44</ele><time>2013-07-21T09:47:11Z</time></trkpt><trkpt lat="46.4712627232" lon="12.0534356777"><ele>2351.04</ele><time>2013-07-21T09:47:21Z</time></trkpt><trkpt lat="46.4712713566" lon="12.0534270443"><ele>2350.56</ele><time>2013-07-21T09:47:22Z</time></trkpt><trkpt lat="46.4713301975" lon="12.0534315705"><ele>2347.20</ele><time>2013-07-21T09:47:32Z</time></trkpt><trkpt lat="46.4713373221" lon="12.0534309000"><ele>2347.20</ele><time>2013-07-21T09:47:33Z</time></trkpt><trkpt lat="46.4713570196" lon="12.0533971209"><ele>2345.75</ele><time>2013-07-21T09:47:42Z</time></trkpt><trkpt lat="46.4713602886" lon="12.0533943549"><ele>2345.27</ele><time>2013-07-21T09:47:43Z</time></trkpt><trkpt lat="46.4712965023" lon="12.0533349272"><ele>2343.83</ele><time>2013-07-21T09:47:55Z</time></trkpt><trkpt lat="46.4712828398" lon="12.0532649383"><ele>2342.39</ele><time>2013-07-21T09:48:06Z</time></trkpt><trkpt lat="46.4712636452" lon="12.0532335062"><ele>2340.47</ele><time>2013-07-21T09:48:15Z</time></trkpt><trkpt lat="46.4712600410" lon="12.0532279741"><ele>2339.99</ele><time>2013-07-21T09:48:27Z</time></trkpt><trkpt lat="46.4712674171" lon="12.0531898364"><ele>2339.02</ele><time>2013-07-21T09:48:36Z</time></trkpt><trkpt lat="46.4712891262" lon="12.0531801134"><ele>2336.62</ele><time>2013-07-21T09:48:46Z</time></trkpt><trkpt lat="46.4713084046" lon="12.0531714801"><ele>2335.18</ele><time>2013-07-21T09:48:54Z</time></trkpt><trkpt lat="46.4713115897" lon="12.0531599969"><ele>2334.70</ele><time>2013-07-21T09:48:59Z</time></trkpt><trkpt lat="46.4713059738" lon="12.0531776827"><ele>2333.26</ele><time>2013-07-21T09:49:07Z</time></trkpt><trkpt lat="46.4713174570" lon="12.0531655289"><ele>2332.30</ele><time>2013-07-21T09:49:15Z</time></trkpt><trkpt lat="46.4713150263" lon="12.0531422272"><ele>2331.33</ele><time>2013-07-21T09:49:27Z</time></trkpt><trkpt lat="46.4713150263" lon="12.0531422272"><ele>2331.33</ele><time>2013-07-21T09:49:43Z</time></trkpt><trkpt lat="46.4713144396" lon="12.0531352703"><ele>2329.89</ele><time>2013-07-21T09:49:52Z</time></trkpt><trkpt lat="46.4713292755" lon="12.0530808717"><ele>2329.41</ele><time>2013-07-21T09:50:00Z</time></trkpt><trkpt lat="46.4713155292" lon="12.0530750044"><ele>2328.93</ele><time>2013-07-21T09:50:11Z</time></trkpt><trkpt lat="46.4713155292" lon="12.0530750044"><ele>2328.45</ele><time>2013-07-21T09:50:30Z</time></trkpt><trkpt lat="46.4713185467" lon="12.0530659519"><ele>2328.45</ele><time>2013-07-21T09:50:50Z</time></trkpt><trkpt lat="46.4713343047" lon="12.0530587435"><ele>2327.49</ele><time>2013-07-21T09:50:57Z</time></trkpt><trkpt lat="46.4713469613" lon="12.0530450810"><ele>2326.53</ele><time>2013-07-21T09:51:05Z</time></trkpt><trkpt lat="46.4713477995" lon="12.0530483499"><ele>2325.09</ele><time>2013-07-21T09:51:12Z</time></trkpt><trkpt lat="46.4713467937" lon="12.0530406386"><ele>2324.61</ele><time>2013-07-21T09:51:20Z</time></trkpt><trkpt lat="46.4713594504" lon="12.0530281495"><ele>2323.64</ele><time>2013-07-21T09:51:29Z</time></trkpt><trkpt lat="46.4713684190" lon="12.0530335139"><ele>2322.68</ele><time>2013-07-21T09:51:36Z</time></trkpt><trkpt lat="46.4713732805" lon="12.0530279819"><ele>2322.68</ele><time>2013-07-21T09:51:46Z</time></trkpt><trkpt lat="46.4713713527" lon="12.0530234557"><ele>2322.20</ele><time>2013-07-21T09:51:57Z</time></trkpt><trkpt lat="46.4713700954" lon="12.0530185942"><ele>2321.24</ele><time>2013-07-21T09:52:08Z</time></trkpt><trkpt lat="46.4713700954" lon="12.0530185942"><ele>2320.28</ele><time>2013-07-21T09:52:20Z</time></trkpt><trkpt lat="46.4713700954" lon="12.0530185942"><ele>2320.28</ele><time>2013-07-21T09:52:29Z</time></trkpt><trkpt lat="46.4713748731" lon="12.0530291554"><ele>2319.80</ele><time>2013-07-21T09:52:40Z</time></trkpt><trkpt lat="46.4713817462" lon="12.0530181751"><ele>2318.84</ele><time>2013-07-21T09:52:49Z</time></trkpt><trkpt lat="46.4714002702" lon="12.0530319214"><ele>2319.32</ele><time>2013-07-21T09:52:58Z</time></trkpt><trkpt lat="46.4714270085" lon="12.0530566480"><ele>2317.88</ele><time>2013-07-21T09:53:07Z</time></trkpt><trkpt lat="46.4714271761" lon="12.0530708972"><ele>2316.91</ele><time>2013-07-21T09:53:18Z</time></trkpt><trkpt lat="46.4714225661" lon="12.0530855656"><ele>2317.40</ele><time>2013-07-21T09:53:29Z</time></trkpt><trkpt lat="46.4714455325" lon="12.0531097893"><ele>2315.95</ele><time>2013-07-21T09:53:32Z</time></trkpt><trkpt lat="46.4715376496" lon="12.0531855617"><ele>2317.40</ele><time>2013-07-21T09:53:43Z</time></trkpt><trkpt lat="46.4715514798" lon="12.0532143954"><ele>2316.43</ele><time>2013-07-21T09:53:48Z</time></trkpt><trkpt lat="46.4715535752" lon="12.0532542095"><ele>2315.47</ele><time>2013-07-21T09:53:51Z</time></trkpt><trkpt lat="46.4715613704" lon="12.0534451492"><ele>2314.03</ele><time>2013-07-21T09:54:03Z</time></trkpt><trkpt lat="46.4715620410" lon="12.0534735639"><ele>2313.07</ele><time>2013-07-21T09:54:05Z</time></trkpt><trkpt lat="46.4715932216" lon="12.0536027290"><ele>2312.11</ele><time>2013-07-21T09:54:15Z</time></trkpt><trkpt lat="46.4715755358" lon="12.0536524337"><ele>2311.15</ele><time>2013-07-21T09:54:19Z</time></trkpt><trkpt lat="46.4715531562" lon="12.0537168905"><ele>2311.15</ele><time>2013-07-21T09:54:29Z</time></trkpt><trkpt lat="46.4715552516" lon="12.0537316427"><ele>2311.15</ele><time>2013-07-21T09:54:32Z</time></trkpt><trkpt lat="46.4715533238" lon="12.0537613984"><ele>2310.67</ele><time>2013-07-21T09:54:39Z</time></trkpt><trkpt lat="46.4715576824" lon="12.0537634939"><ele>2310.67</ele><time>2013-07-21T09:54:47Z</time></trkpt><trkpt lat="46.4715751167" lon="12.0537873823"><ele>2309.70</ele><time>2013-07-21T09:54:53Z</time></trkpt><trkpt lat="46.4716165233" lon="12.0537950937"><ele>2307.78</ele><time>2013-07-21T09:55:00Z</time></trkpt><trkpt lat="46.4716165233" lon="12.0537950937"><ele>2307.30</ele><time>2013-07-21T09:55:08Z</time></trkpt><trkpt lat="46.4716013521" lon="12.0538420323"><ele>2306.34</ele><time>2013-07-21T09:55:12Z</time></trkpt><trkpt lat="46.4715952333" lon="12.0539419446"><ele>2306.34</ele><time>2013-07-21T09:55:20Z</time></trkpt><trkpt lat="46.4716018550" lon="12.0539465547"><ele>2305.38</ele><time>2013-07-21T09:55:22Z</time></trkpt><trkpt lat="46.4715914614" lon="12.0540680923"><ele>2303.46</ele><time>2013-07-21T09:55:32Z</time></trkpt><trkpt lat="46.4715900365" lon="12.0541307051"><ele>2302.98</ele><time>2013-07-21T09:55:36Z</time></trkpt><trkpt lat="46.4716009330" lon="12.0542222355"><ele>2300.09</ele><time>2013-07-21T09:55:44Z</time></trkpt><trkpt lat="46.4715995081" lon="12.0542556792"><ele>2300.57</ele><time>2013-07-21T09:55:46Z</time></trkpt><trkpt lat="46.4715912938" lon="12.0543504786"><ele>2298.65</ele><time>2013-07-21T09:55:53Z</time></trkpt><trkpt lat="46.4716324490" lon="12.0544634666"><ele>2296.73</ele><time>2013-07-21T09:56:03Z</time></trkpt><trkpt lat="46.4716486260" lon="12.0545362215"><ele>2296.25</ele><time>2013-07-21T09:56:09Z</time></trkpt><trkpt lat="46.4716751128" lon="12.0546124130"><ele>2295.28</ele><time>2013-07-21T09:56:16Z</time></trkpt><trkpt lat="46.4716920443" lon="12.0546654705"><ele>2294.32</ele><time>2013-07-21T09:56:19Z</time></trkpt><trkpt lat="46.4717264101" lon="12.0547818113"><ele>2294.80</ele><time>2013-07-21T09:56:26Z</time></trkpt><trkpt lat="46.4717368875" lon="12.0548065379"><ele>2293.84</ele><time>2013-07-21T09:56:29Z</time></trkpt><trkpt lat="46.4717737678" lon="12.0548357908"><ele>2293.84</ele><time>2013-07-21T09:56:35Z</time></trkpt><trkpt lat="46.4718202036" lon="12.0549180172"><ele>2293.36</ele><time>2013-07-21T09:56:44Z</time></trkpt><trkpt lat="46.4718589280" lon="12.0549095515"><ele>2291.44</ele><time>2013-07-21T09:56:49Z</time></trkpt><trkpt lat="46.4719554037" lon="12.0549659617"><ele>2290.48</ele><time>2013-07-21T09:57:00Z</time></trkpt><trkpt lat="46.4719721675" lon="12.0549654588"><ele>2289.52</ele><time>2013-07-21T09:57:02Z</time></trkpt><trkpt lat="46.4719927032" lon="12.0549611002"><ele>2289.04</ele><time>2013-07-21T09:57:04Z</time></trkpt><trkpt lat="46.4720296673" lon="12.0549638662"><ele>2289.04</ele><time>2013-07-21T09:57:07Z</time></trkpt><trkpt lat="46.4720880892" lon="12.0550331846"><ele>2289.52</ele><time>2013-07-21T09:57:14Z</time></trkpt><trkpt lat="46.4721166715" lon="12.0550350286"><ele>2288.56</ele><time>2013-07-21T09:57:17Z</time></trkpt><trkpt lat="46.4721847326" lon="12.0550645329"><ele>2287.11</ele><time>2013-07-21T09:57:26Z</time></trkpt><trkpt lat="46.4722179249" lon="12.0550752617"><ele>2285.67</ele><time>2013-07-21T09:57:30Z</time></trkpt><trkpt lat="46.4722751733" lon="12.0551454183"><ele>2283.75</ele><time>2013-07-21T09:57:39Z</time></trkpt><trkpt lat="46.4723074436" lon="12.0551114716"><ele>2281.83</ele><time>2013-07-21T09:57:45Z</time></trkpt><trkpt lat="46.4723914303" lon="12.0551413950"><ele>2278.46</ele><time>2013-07-21T09:57:55Z</time></trkpt><trkpt lat="46.4723991416" lon="12.0551533811"><ele>2277.98</ele><time>2013-07-21T09:57:56Z</time></trkpt><trkpt lat="46.4724403806" lon="12.0551684685"><ele>2277.50</ele><time>2013-07-21T09:58:00Z</time></trkpt><trkpt lat="46.4724909235" lon="12.0552312490"><ele>2276.06</ele><time>2013-07-21T09:58:05Z</time></trkpt><trkpt lat="46.4725216851" lon="12.0552615914"><ele>2276.06</ele><time>2013-07-21T09:58:09Z</time></trkpt><trkpt lat="46.4725495130" lon="12.0552996453"><ele>2274.62</ele><time>2013-07-21T09:58:12Z</time></trkpt><trkpt lat="46.4725965355" lon="12.0553648565"><ele>2274.14</ele><time>2013-07-21T09:58:20Z</time></trkpt><trkpt lat="46.4726538677" lon="12.0553702209"><ele>2272.21</ele><time>2013-07-21T09:58:27Z</time></trkpt><trkpt lat="46.4726723079" lon="12.0553647727"><ele>2270.77</ele><time>2013-07-21T09:58:30Z</time></trkpt><trkpt lat="46.4727105293" lon="12.0553789381"><ele>2269.81</ele><time>2013-07-21T09:58:34Z</time></trkpt><trkpt lat="46.4727676939" lon="12.0553661976"><ele>2267.89</ele><time>2013-07-21T09:58:39Z</time></trkpt><trkpt lat="46.4728246070" lon="12.0553612523"><ele>2266.45</ele><time>2013-07-21T09:58:45Z</time></trkpt><trkpt lat="46.4728723001" lon="12.0554328337"><ele>2265.96</ele><time>2013-07-21T09:58:52Z</time></trkpt><trkpt lat="46.4728948474" lon="12.0554362703"><ele>2265.00</ele><time>2013-07-21T09:58:56Z</time></trkpt><trkpt lat="46.4729488268" lon="12.0554987993"><ele>2262.60</ele><time>2013-07-21T09:59:06Z</time></trkpt><trkpt lat="46.4729778282" lon="12.0555291418"><ele>2262.12</ele><time>2013-07-21T09:59:10Z</time></trkpt><trkpt lat="46.4730041474" lon="12.0555241965"><ele>2262.12</ele><time>2013-07-21T09:59:13Z</time></trkpt><trkpt lat="46.4730693586" lon="12.0555761643"><ele>2263.08</ele><time>2013-07-21T09:59:20Z</time></trkpt><trkpt lat="46.4731535129" lon="12.0555796009"><ele>2262.12</ele><time>2013-07-21T09:59:28Z</time></trkpt><trkpt lat="46.4731677622" lon="12.0556389447"><ele>2260.20</ele><time>2013-07-21T09:59:33Z</time></trkpt><trkpt lat="46.4731820114" lon="12.0556737296"><ele>2259.24</ele><time>2013-07-21T09:59:36Z</time></trkpt><trkpt lat="46.4732174668" lon="12.0557091851"><ele>2258.27</ele><time>2013-07-21T09:59:40Z</time></trkpt><trkpt lat="46.4732864499" lon="12.0558262803"><ele>2256.83</ele><time>2013-07-21T09:59:50Z</time></trkpt><trkpt lat="46.4732990228" lon="12.0558534376"><ele>2255.87</ele><time>2013-07-21T09:59:52Z</time></trkpt><trkpt lat="46.4733369090" lon="12.0558965206"><ele>2255.87</ele><time>2013-07-21T09:59:57Z</time></trkpt><trkpt lat="46.4733824227" lon="12.0559067465"><ele>2254.91</ele><time>2013-07-21T10:00:02Z</time></trkpt><trkpt lat="46.4734219015" lon="12.0559582114"><ele>2253.47</ele><time>2013-07-21T10:00:07Z</time></trkpt><trkpt lat="46.4734569378" lon="12.0560962614"><ele>2252.51</ele><time>2013-07-21T10:00:16Z</time></trkpt><trkpt lat="46.4735141024" lon="12.0561676752"><ele>2250.58</ele><time>2013-07-21T10:00:24Z</time></trkpt><trkpt lat="46.4735388290" lon="12.0562173799"><ele>2250.10</ele><time>2013-07-21T10:00:28Z</time></trkpt><trkpt lat="46.4735576883" lon="12.0562519133"><ele>2249.14</ele><time>2013-07-21T10:00:31Z</time></trkpt><trkpt lat="46.4736081474" lon="12.0563244168"><ele>2248.18</ele><time>2013-07-21T10:00:37Z</time></trkpt><trkpt lat="46.4736368135" lon="12.0563605428"><ele>2248.18</ele><time>2013-07-21T10:00:41Z</time></trkpt><trkpt lat="46.4736275934" lon="12.0564065594"><ele>2247.22</ele><time>2013-07-21T10:00:44Z</time></trkpt><trkpt lat="46.4736648928" lon="12.0564876124"><ele>2246.26</ele><time>2013-07-21T10:00:50Z</time></trkpt><trkpt lat="46.4737113286" lon="12.0565584395"><ele>2245.78</ele><time>2013-07-21T10:00:56Z</time></trkpt><trkpt lat="46.4737497177" lon="12.0566513110"><ele>2244.82</ele><time>2013-07-21T10:01:02Z</time></trkpt><trkpt lat="46.4737984166" lon="12.0567561686"><ele>2244.33</ele><time>2013-07-21T10:01:10Z</time></trkpt><trkpt lat="46.4738325309" lon="12.0568695758"><ele>2243.85</ele><time>2013-07-21T10:01:17Z</time></trkpt><trkpt lat="46.4738447685" lon="12.0568886865"><ele>2243.85</ele><time>2013-07-21T10:01:19Z</time></trkpt><trkpt lat="46.4738604426" lon="12.0569430012"><ele>2242.89</ele><time>2013-07-21T10:01:24Z</time></trkpt><trkpt lat="46.4738747757" lon="12.0570230484"><ele>2242.89</ele><time>2013-07-21T10:01:29Z</time></trkpt><trkpt lat="46.4739083033" lon="12.0571165904"><ele>2242.89</ele><time>2013-07-21T10:01:38Z</time></trkpt><trkpt lat="46.4739247318" lon="12.0571152493"><ele>2242.41</ele><time>2013-07-21T10:01:40Z</time></trkpt><trkpt lat="46.4739829861" lon="12.0571590867"><ele>2241.93</ele><time>2013-07-21T10:01:49Z</time></trkpt><trkpt lat="46.4740145020" lon="12.0571834780"><ele>2241.45</ele><time>2013-07-21T10:01:57Z</time></trkpt><trkpt lat="46.4740787074" lon="12.0572153293"><ele>2241.93</ele><time>2013-07-21T10:02:06Z</time></trkpt><trkpt lat="46.4741001651" lon="12.0572785288"><ele>2241.45</ele><time>2013-07-21T10:02:14Z</time></trkpt><trkpt lat="46.4741579164" lon="12.0573034231"><ele>2241.45</ele><time>2013-07-21T10:02:20Z</time></trkpt><trkpt lat="46.4741879236" lon="12.0573034231"><ele>2241.45</ele><time>2013-07-21T10:02:23Z</time></trkpt><trkpt lat="46.4742033463" lon="12.0572993997"><ele>2241.93</ele><time>2013-07-21T10:02:34Z</time></trkpt><trkpt lat="46.4742397238" lon="12.0573726576"><ele>2240.49</ele><time>2013-07-21T10:02:42Z</time></trkpt><trkpt lat="46.4742683899" lon="12.0573982224"><ele>2239.53</ele><time>2013-07-21T10:02:46Z</time></trkpt><trkpt lat="46.4743021689" lon="12.0574039221"><ele>2239.05</ele><time>2013-07-21T10:02:49Z</time></trkpt><trkpt lat="46.4743323438" lon="12.0574064367"><ele>2238.57</ele><time>2013-07-21T10:02:52Z</time></trkpt><trkpt lat="46.4743960463" lon="12.0574115496"><ele>2235.68</ele><time>2013-07-21T10:03:02Z</time></trkpt><trkpt lat="46.4744062722" lon="12.0574963745"><ele>2234.24</ele><time>2013-07-21T10:03:09Z</time></trkpt><trkpt lat="46.4743994828" lon="12.0575117134"><ele>2233.76</ele><time>2013-07-21T10:03:10Z</time></trkpt><trkpt lat="46.4744295739" lon="12.0575729012"><ele>2232.80</ele><time>2013-07-21T10:03:18Z</time></trkpt><trkpt lat="46.4745185059" lon="12.0576076861"><ele>2231.36</ele><time>2013-07-21T10:03:29Z</time></trkpt><trkpt lat="46.4745309949" lon="12.0576039981"><ele>2231.36</ele><time>2013-07-21T10:03:44Z</time></trkpt><trkpt lat="46.4745496865" lon="12.0577219315"><ele>2228.47</ele><time>2013-07-21T10:03:53Z</time></trkpt><trkpt lat="46.4745630138" lon="12.0578101929"><ele>2227.03</ele><time>2013-07-21T10:04:00Z</time></trkpt><trkpt lat="46.4745889138" lon="12.0578842051"><ele>2225.59</ele><time>2013-07-21T10:04:08Z</time></trkpt><trkpt lat="46.4746339247" lon="12.0580427069"><ele>2224.15</ele><time>2013-07-21T10:04:18Z</time></trkpt><trkpt lat="46.4746640995" lon="12.0581636578"><ele>2226.07</ele><time>2013-07-21T10:04:28Z</time></trkpt><trkpt lat="46.4746608306" lon="12.0582100097"><ele>2227.03</ele><time>2013-07-21T10:04:34Z</time></trkpt><trkpt lat="46.4746730682" lon="12.0582748856"><ele>2228.47</ele><time>2013-07-21T10:04:44Z</time></trkpt><trkpt lat="46.4747223537" lon="12.0583753847"><ele>2228.95</ele><time>2013-07-21T10:04:54Z</time></trkpt><trkpt lat="46.4747432247" lon="12.0584034640"><ele>2229.43</ele><time>2013-07-21T10:04:57Z</time></trkpt><trkpt lat="46.4747581445" lon="12.0584555157"><ele>2228.47</ele><time>2013-07-21T10:05:01Z</time></trkpt><trkpt lat="46.4747557137" lon="12.0586192980"><ele>2228.95</ele><time>2013-07-21T10:05:11Z</time></trkpt><trkpt lat="46.4747848827" lon="12.0587099064"><ele>2228.47</ele><time>2013-07-21T10:05:18Z</time></trkpt><trkpt lat="46.4748253673" lon="12.0587508101"><ele>2227.99</ele><time>2013-07-21T10:05:23Z</time></trkpt><trkpt lat="46.4748714678" lon="12.0588420052"><ele>2227.99</ele><time>2013-07-21T10:05:29Z</time></trkpt><trkpt lat="46.4748797659" lon="12.0588768739"><ele>2227.51</ele><time>2013-07-21T10:05:31Z</time></trkpt><trkpt lat="46.4749381039" lon="12.0590404887"><ele>2227.51</ele><time>2013-07-21T10:05:42Z</time></trkpt><trkpt lat="46.4749447256" lon="12.0590823144"><ele>2227.51</ele><time>2013-07-21T10:05:45Z</time></trkpt><trkpt lat="46.4750018064" lon="12.0592119824"><ele>2227.03</ele><time>2013-07-21T10:05:57Z</time></trkpt><trkpt lat="46.4750116132" lon="12.0592953824"><ele>2227.03</ele><time>2013-07-21T10:06:05Z</time></trkpt><trkpt lat="46.4750108588" lon="12.0594134834"><ele>2225.59</ele><time>2013-07-21T10:06:16Z</time></trkpt><trkpt lat="46.4750401117" lon="12.0595025830"><ele>2223.67</ele><time>2013-07-21T10:06:25Z</time></trkpt><trkpt lat="46.4750617370" lon="12.0595594123"><ele>2224.15</ele><time>2013-07-21T10:06:29Z</time></trkpt><trkpt lat="46.4750793390" lon="12.0596029144"><ele>2224.15</ele><time>2013-07-21T10:06:33Z</time></trkpt><trkpt lat="46.4751159679" lon="12.0596512780"><ele>2225.59</ele><time>2013-07-21T10:06:42Z</time></trkpt><trkpt lat="46.4751518425" lon="12.0596749149"><ele>2225.59</ele><time>2013-07-21T10:06:49Z</time></trkpt><trkpt lat="46.4752055705" lon="12.0597485080"><ele>2227.51</ele><time>2013-07-21T10:06:59Z</time></trkpt><trkpt lat="46.4752202388" lon="12.0598130487"><ele>2227.51</ele><time>2013-07-21T10:07:06Z</time></trkpt><trkpt lat="46.4752408583" lon="12.0598666929"><ele>2227.99</ele><time>2013-07-21T10:07:12Z</time></trkpt><trkpt lat="46.4752672613" lon="12.0599215943"><ele>2228.95</ele><time>2013-07-21T10:07:21Z</time></trkpt><trkpt lat="46.4753095899" lon="12.0599505957"><ele>2229.43</ele><time>2013-07-21T10:07:28Z</time></trkpt><trkpt lat="46.4753280301" lon="12.0599984564"><ele>2230.40</ele><time>2013-07-21T10:07:37Z</time></trkpt><trkpt lat="46.4753251802" lon="12.0600040723"><ele>2229.92</ele><time>2013-07-21T10:07:50Z</time></trkpt><trkpt lat="46.4753444586" lon="12.0600102749"><ele>2230.88</ele><time>2013-07-21T10:07:56Z</time></trkpt><trkpt lat="46.4753989410" lon="12.0600786712"><ele>2230.88</ele><time>2013-07-21T10:08:05Z</time></trkpt><trkpt lat="46.4754274394" lon="12.0600937586"><ele>2230.88</ele><time>2013-07-21T10:08:08Z</time></trkpt><trkpt lat="46.4754417725" lon="12.0601168089"><ele>2231.36</ele><time>2013-07-21T10:08:10Z</time></trkpt><trkpt lat="46.4754623082" lon="12.0601879712"><ele>2232.32</ele><time>2013-07-21T10:08:17Z</time></trkpt><trkpt lat="46.4754885435" lon="12.0602349099"><ele>2232.80</ele><time>2013-07-21T10:08:21Z</time></trkpt><trkpt lat="46.4755308721" lon="12.0603002049"><ele>2233.28</ele><time>2013-07-21T10:08:27Z</time></trkpt><trkpt lat="46.4755755477" lon="12.0603823476"><ele>2233.28</ele><time>2013-07-21T10:08:37Z</time></trkpt><trkpt lat="46.4755888749" lon="12.0605309587"><ele>2234.24</ele><time>2013-07-21T10:08:48Z</time></trkpt><trkpt lat="46.4756310359" lon="12.0606763009"><ele>2234.24</ele><time>2013-07-21T10:08:59Z</time></trkpt><trkpt lat="46.4756796509" lon="12.0607558452"><ele>2235.20</ele><time>2013-07-21T10:09:07Z</time></trkpt><trkpt lat="46.4756839257" lon="12.0607626345"><ele>2235.68</ele><time>2013-07-21T10:09:08Z</time></trkpt><trkpt lat="46.4757195488" lon="12.0608108304"><ele>2235.68</ele><time>2013-07-21T10:09:14Z</time></trkpt><trkpt lat="46.4757496398" lon="12.0608281810"><ele>2237.13</ele><time>2013-07-21T10:09:17Z</time></trkpt><trkpt lat="46.4758097380" lon="12.0609329548"><ele>2238.09</ele><time>2013-07-21T10:09:28Z</time></trkpt><trkpt lat="46.4758393262" lon="12.0609594416"><ele>2238.09</ele><time>2013-07-21T10:09:31Z</time></trkpt><trkpt lat="46.4758676570" lon="12.0610352978"><ele>2238.57</ele><time>2013-07-21T10:09:37Z</time></trkpt><trkpt lat="46.4758996759" lon="12.0610781293"><ele>2239.05</ele><time>2013-07-21T10:09:42Z</time></trkpt><trkpt lat="46.4759202115" lon="12.0611243136"><ele>2240.01</ele><time>2013-07-21T10:09:46Z</time></trkpt><trkpt lat="46.4759660605" lon="12.0611737669"><ele>2240.01</ele><time>2013-07-21T10:09:55Z</time></trkpt><trkpt lat="46.4759959839" lon="12.0611991640"><ele>2240.49</ele><time>2013-07-21T10:10:03Z</time></trkpt><trkpt lat="46.4760024380" lon="12.0611981582"><ele>2240.49</ele><time>2013-07-21T10:10:05Z</time></trkpt><trkpt lat="46.4760478679" lon="12.0612137485"><ele>2240.49</ele><time>2013-07-21T10:10:10Z</time></trkpt><trkpt lat="46.4761265740" lon="12.0612537302"><ele>2240.97</ele><time>2013-07-21T10:10:19Z</time></trkpt><trkpt lat="46.4761532284" lon="12.0613313466"><ele>2241.45</ele><time>2013-07-21T10:10:26Z</time></trkpt><trkpt lat="46.4761571679" lon="12.0614330191"><ele>2241.93</ele><time>2013-07-21T10:10:36Z</time></trkpt><trkpt lat="46.4761759434" lon="12.0614462625"><ele>2240.49</ele><time>2013-07-21T10:10:45Z</time></trkpt><trkpt lat="46.4762131590" lon="12.0614392217"><ele>2239.53</ele><time>2013-07-21T10:10:52Z</time></trkpt><trkpt lat="46.4762398135" lon="12.0614471845"><ele>2237.13</ele><time>2013-07-21T10:11:00Z</time></trkpt><trkpt lat="46.4763373788" lon="12.0614817180"><ele>2238.09</ele><time>2013-07-21T10:11:09Z</time></trkpt><trkpt lat="46.4764246345" lon="12.0614735875"><ele>2239.53</ele><time>2013-07-21T10:11:18Z</time></trkpt><trkpt lat="46.4764056075" lon="12.0615277346"><ele>2241.93</ele><time>2013-07-21T10:11:27Z</time></trkpt><trkpt lat="46.4763753489" lon="12.0616145711"><ele>2244.33</ele><time>2013-07-21T10:11:38Z</time></trkpt><trkpt lat="46.4763426594" lon="12.0616940316"><ele>2245.30</ele><time>2013-07-21T10:11:47Z</time></trkpt><trkpt lat="46.4763372950" lon="12.0617117174"><ele>2245.30</ele><time>2013-07-21T10:11:50Z</time></trkpt><trkpt lat="46.4763314277" lon="12.0617558900"><ele>2245.78</ele><time>2013-07-21T10:11:55Z</time></trkpt><trkpt lat="46.4763584174" lon="12.0617810357"><ele>2245.30</ele><time>2013-07-21T10:12:05Z</time></trkpt><trkpt lat="46.4763774443" lon="12.0618073549"><ele>2245.30</ele><time>2013-07-21T10:12:14Z</time></trkpt><trkpt lat="46.4763906039" lon="12.0618364401"><ele>2245.30</ele><time>2013-07-21T10:12:17Z</time></trkpt><trkpt lat="46.4764445834" lon="12.0619404595"><ele>2246.74</ele><time>2013-07-21T10:12:28Z</time></trkpt><trkpt lat="46.4764817152" lon="12.0620029047"><ele>2247.22</ele><time>2013-07-21T10:12:34Z</time></trkpt><trkpt lat="46.4765029214" lon="12.0620354265"><ele>2247.70</ele><time>2013-07-21T10:12:37Z</time></trkpt><trkpt lat="46.4764860738" lon="12.0620805211"><ele>2248.66</ele><time>2013-07-21T10:12:47Z</time></trkpt><trkpt lat="46.4764953777" lon="12.0620956924"><ele>2248.66</ele><time>2013-07-21T10:13:00Z</time></trkpt><trkpt lat="46.4764953777" lon="12.0620956924"><ele>2248.66</ele><time>2013-07-21T10:13:16Z</time></trkpt><trkpt lat="46.4764953777" lon="12.0620956924"><ele>2248.66</ele><time>2013-07-21T10:13:31Z</time></trkpt><trkpt lat="46.4765826333" lon="12.0620567165"><ele>2248.18</ele><time>2013-07-21T10:13:38Z</time></trkpt><trkpt lat="46.4766496886" lon="12.0620252006"><ele>2248.66</ele><time>2013-07-21T10:13:43Z</time></trkpt><trkpt lat="46.4767656103" lon="12.0619201753"><ele>2249.62</ele><time>2013-07-21T10:13:53Z</time></trkpt><trkpt lat="46.4768236130" lon="12.0617962908"><ele>2251.06</ele><time>2013-07-21T10:14:03Z</time></trkpt><trkpt lat="46.4769266266" lon="12.0616876613"><ele>2252.99</ele><time>2013-07-21T10:14:15Z</time></trkpt><trkpt lat="46.4769376907" lon="12.0616812073"><ele>2252.99</ele><time>2013-07-21T10:14:16Z</time></trkpt><trkpt lat="46.4770604018" lon="12.0615992323"><ele>2251.54</ele><time>2013-07-21T10:14:25Z</time></trkpt><trkpt lat="46.4771524351" lon="12.0615001582"><ele>2249.62</ele><time>2013-07-21T10:14:34Z</time></trkpt><trkpt lat="46.4771914948" lon="12.0614517946"><ele>2248.66</ele><time>2013-07-21T10:14:38Z</time></trkpt><trkpt lat="46.4772953466" lon="12.0613911096"><ele>2247.70</ele><time>2013-07-21T10:14:46Z</time></trkpt><trkpt lat="46.4774404373" lon="12.0613297541"><ele>2245.78</ele><time>2013-07-21T10:14:56Z</time></trkpt><trkpt lat="46.4775303751" lon="12.0613408182"><ele>2243.85</ele><time>2013-07-21T10:15:02Z</time></trkpt><trkpt lat="46.4776011184" lon="12.0613061171"><ele>2243.37</ele><time>2013-07-21T10:15:07Z</time></trkpt><trkpt lat="46.4776335564" lon="12.0612740982"><ele>2242.89</ele><time>2013-07-21T10:15:10Z</time></trkpt><trkpt lat="46.4776895475" lon="12.0612974837"><ele>2241.45</ele><time>2013-07-21T10:15:15Z</time></trkpt><trkpt lat="46.4777578600" lon="12.0612481143"><ele>2241.45</ele><time>2013-07-21T10:15:21Z</time></trkpt><trkpt lat="46.4778416790" lon="12.0612621959"><ele>2239.53</ele><time>2013-07-21T10:15:27Z</time></trkpt><trkpt lat="46.4778886177" lon="12.0612464380"><ele>2238.57</ele><time>2013-07-21T10:15:31Z</time></trkpt><trkpt lat="46.4779926371" lon="12.0612132456"><ele>2236.16</ele><time>2013-07-21T10:15:40Z</time></trkpt><trkpt lat="46.4780492149" lon="12.0612001698"><ele>2235.68</ele><time>2013-07-21T10:15:45Z</time></trkpt><trkpt lat="46.4781328663" lon="12.0612110663"><ele>2234.72</ele><time>2013-07-21T10:15:51Z</time></trkpt><trkpt lat="46.4782223012" lon="12.0610658918"><ele>2235.20</ele><time>2013-07-21T10:16:03Z</time></trkpt><trkpt lat="46.4782270789" lon="12.0610549953"><ele>2234.72</ele><time>2013-07-21T10:16:04Z</time></trkpt><trkpt lat="46.4782710839" lon="12.0609858446"><ele>2235.68</ele><time>2013-07-21T10:16:09Z</time></trkpt><trkpt lat="46.4782963973" lon="12.0609540772"><ele>2235.68</ele><time>2013-07-21T10:16:13Z</time></trkpt><trkpt lat="46.4783261530" lon="12.0609247405"><ele>2235.20</ele><time>2013-07-21T10:16:23Z</time></trkpt><trkpt lat="46.4783270750" lon="12.0609305240"><ele>2235.20</ele><time>2013-07-21T10:16:35Z</time></trkpt><trkpt lat="46.4783270750" lon="12.0609305240"><ele>2235.20</ele><time>2013-07-21T10:16:58Z</time></trkpt><trkpt lat="46.4783259854" lon="12.0609259978"><ele>2234.24</ele><time>2013-07-21T10:17:23Z</time></trkpt><trkpt lat="46.4783269912" lon="12.0609259978"><ele>2234.72</ele><time>2013-07-21T10:17:48Z</time></trkpt><trkpt lat="46.4783269912" lon="12.0609259978"><ele>2234.72</ele><time>2013-07-21T10:18:14Z</time></trkpt><trkpt lat="46.4783279970" lon="12.0609254111"><ele>2234.24</ele><time>2013-07-21T10:18:39Z</time></trkpt><trkpt lat="46.4783279970" lon="12.0609254111"><ele>2234.72</ele><time>2013-07-21T10:19:01Z</time></trkpt><trkpt lat="46.4783293381" lon="12.0609252434"><ele>2233.76</ele><time>2013-07-21T10:19:20Z</time></trkpt><trkpt lat="46.4783351216" lon="12.0609112456"><ele>2233.76</ele><time>2013-07-21T10:19:40Z</time></trkpt><trkpt lat="46.4783813059" lon="12.0608590264"><ele>2232.80</ele><time>2013-07-21T10:19:46Z</time></trkpt><trkpt lat="46.4784586709" lon="12.0607700944"><ele>2231.84</ele><time>2013-07-21T10:19:55Z</time></trkpt><trkpt lat="46.4784802962" lon="12.0607555937"><ele>2232.32</ele><time>2013-07-21T10:19:57Z</time></trkpt><trkpt lat="46.4785175957" lon="12.0607382432"><ele>2230.40</ele><time>2013-07-21T10:20:02Z</time></trkpt><trkpt lat="46.4785947930" lon="12.0606672484"><ele>2229.92</ele><time>2013-07-21T10:20:08Z</time></trkpt><trkpt lat="46.4786197711" lon="12.0606446173"><ele>2229.43</ele><time>2013-07-21T10:20:10Z</time></trkpt><trkpt lat="46.4787367824" lon="12.0605288632"><ele>2228.95</ele><time>2013-07-21T10:20:20Z</time></trkpt><trkpt lat="46.4788467530" lon="12.0603968482"><ele>2228.47</ele><time>2013-07-21T10:20:30Z</time></trkpt><trkpt lat="46.4789992198" lon="12.0602325629"><ele>2228.95</ele><time>2013-07-21T10:20:43Z</time></trkpt><trkpt lat="46.4790449012" lon="12.0601987839"><ele>2228.47</ele><time>2013-07-21T10:20:47Z</time></trkpt><trkpt lat="46.4790849667" lon="12.0601585507"><ele>2227.99</ele><time>2013-07-21T10:20:51Z</time></trkpt><trkpt lat="46.4791479986" lon="12.0601714589"><ele>2227.51</ele><time>2013-07-21T10:20:56Z</time></trkpt><trkpt lat="46.4791671932" lon="12.0601515938"><ele>2227.51</ele><time>2013-07-21T10:20:58Z</time></trkpt><trkpt lat="46.4792228490" lon="12.0601187367"><ele>2227.03</ele><time>2013-07-21T10:21:03Z</time></trkpt><trkpt lat="46.4792692009" lon="12.0600169804"><ele>2226.55</ele><time>2013-07-21T10:21:11Z</time></trkpt><trkpt lat="46.4792766608" lon="12.0600076765"><ele>2226.55</ele><time>2013-07-21T10:21:13Z</time></trkpt><trkpt lat="46.4792938437" lon="12.0599862188"><ele>2225.11</ele><time>2013-07-21T10:21:16Z</time></trkpt><trkpt lat="46.4793962706" lon="12.0598821994"><ele>2226.07</ele><time>2013-07-21T10:21:27Z</time></trkpt><trkpt lat="46.4794572908" lon="12.0598131325"><ele>2227.51</ele><time>2013-07-21T10:21:36Z</time></trkpt><trkpt lat="46.4794930816" lon="12.0597806945"><ele>2228.47</ele><time>2013-07-21T10:21:45Z</time></trkpt><trkpt lat="46.4795416966" lon="12.0597494300"><ele>2230.40</ele><time>2013-07-21T10:21:55Z</time></trkpt><trkpt lat="46.4795568679" lon="12.0597286429"><ele>2231.84</ele><time>2013-07-21T10:22:03Z</time></trkpt><trkpt lat="46.4796000347" lon="12.0596975461"><ele>2232.32</ele><time>2013-07-21T10:22:08Z</time></trkpt><trkpt lat="46.4797095861" lon="12.0596760046"><ele>2234.24</ele><time>2013-07-21T10:22:21Z</time></trkpt><trkpt lat="46.4797139447" lon="12.0596699696"><ele>2234.24</ele><time>2013-07-21T10:22:22Z</time></trkpt><trkpt lat="46.4797738753" lon="12.0596580673"><ele>2234.72</ele><time>2013-07-21T10:22:29Z</time></trkpt><trkpt lat="46.4797979314" lon="12.0596272219"><ele>2234.72</ele><time>2013-07-21T10:22:32Z</time></trkpt><trkpt lat="46.4798848517" lon="12.0595188439"><ele>2232.80</ele><time>2013-07-21T10:22:42Z</time></trkpt><trkpt lat="46.4798903838" lon="12.0595065225"><ele>2233.28</ele><time>2013-07-21T10:22:43Z</time></trkpt><trkpt lat="46.4799465425" lon="12.0593610965"><ele>2233.76</ele><time>2013-07-21T10:22:55Z</time></trkpt><trkpt lat="46.4799479675" lon="12.0593493618"><ele>2233.28</ele><time>2013-07-21T10:22:56Z</time></trkpt><trkpt lat="46.4799668267" lon="12.0592895988"><ele>2233.28</ele><time>2013-07-21T10:23:00Z</time></trkpt><trkpt lat="46.4800336305" lon="12.0590839069"><ele>2233.28</ele><time>2013-07-21T10:23:11Z</time></trkpt><trkpt lat="46.4800928906" lon="12.0589229744"><ele>2232.80</ele><time>2013-07-21T10:23:20Z</time></trkpt><trkpt lat="46.4801576827" lon="12.0587902050"><ele>2232.32</ele><time>2013-07-21T10:23:28Z</time></trkpt><trkpt lat="46.4801854268" lon="12.0586407557"><ele>2231.84</ele><time>2013-07-21T10:23:35Z</time></trkpt><trkpt lat="46.4802058786" lon="12.0584089123"><ele>2231.84</ele><time>2013-07-21T10:23:47Z</time></trkpt><trkpt lat="46.4802233130" lon="12.0583001990"><ele>2233.28</ele><time>2013-07-21T10:23:54Z</time></trkpt><trkpt lat="46.4802813996" lon="12.0581595507"><ele>2234.24</ele><time>2013-07-21T10:24:04Z</time></trkpt><trkpt lat="46.4803081378" lon="12.0580841973"><ele>2237.13</ele><time>2013-07-21T10:24:12Z</time></trkpt><trkpt lat="46.4803150110" lon="12.0580162201"><ele>2237.13</ele><time>2013-07-21T10:24:18Z</time></trkpt><trkpt lat="46.4803213812" lon="12.0579619054"><ele>2238.09</ele><time>2013-07-21T10:24:22Z</time></trkpt><trkpt lat="46.4803202916" lon="12.0578600653"><ele>2238.57</ele><time>2013-07-21T10:24:30Z</time></trkpt><trkpt lat="46.4803325292" lon="12.0577212609"><ele>2240.49</ele><time>2013-07-21T10:24:40Z</time></trkpt><trkpt lat="46.4803618658" lon="12.0575800259"><ele>2241.93</ele><time>2013-07-21T10:24:51Z</time></trkpt><trkpt lat="46.4803896938" lon="12.0574456640"><ele>2240.97</ele><time>2013-07-21T10:25:01Z</time></trkpt><trkpt lat="46.4803745225" lon="12.0573748369"><ele>2240.49</ele><time>2013-07-21T10:25:06Z</time></trkpt><trkpt lat="46.4803668112" lon="12.0572597533"><ele>2240.49</ele><time>2013-07-21T10:25:13Z</time></trkpt><trkpt lat="46.4804065414" lon="12.0571273193"><ele>2239.53</ele><time>2013-07-21T10:25:22Z</time></trkpt><trkpt lat="46.4805108961" lon="12.0570491161"><ele>2240.49</ele><time>2013-07-21T10:25:32Z</time></trkpt><trkpt lat="46.4806166757" lon="12.0569489524"><ele>2240.49</ele><time>2013-07-21T10:25:43Z</time></trkpt><trkpt lat="46.4806984831" lon="12.0568689052"><ele>2240.49</ele><time>2013-07-21T10:25:52Z</time></trkpt><trkpt lat="46.4807934500" lon="12.0567715075"><ele>2241.45</ele><time>2013-07-21T10:26:01Z</time></trkpt><trkpt lat="46.4808212779" lon="12.0567643829"><ele>2240.97</ele><time>2013-07-21T10:26:04Z</time></trkpt><trkpt lat="46.4809312485" lon="12.0567018539"><ele>2241.93</ele><time>2013-07-21T10:26:15Z</time></trkpt><trkpt lat="46.4810019080" lon="12.0566374809"><ele>2243.37</ele><time>2013-07-21T10:26:23Z</time></trkpt><trkpt lat="46.4810688794" lon="12.0565488003"><ele>2242.89</ele><time>2013-07-21T10:26:34Z</time></trkpt><trkpt lat="46.4810688794" lon="12.0565488003"><ele>2242.89</ele><time>2013-07-21T10:26:41Z</time></trkpt><trkpt lat="46.4810992219" lon="12.0564783085"><ele>2242.89</ele><time>2013-07-21T10:26:47Z</time></trkpt><trkpt lat="46.4811566379" lon="12.0563102514"><ele>2242.89</ele><time>2013-07-21T10:26:58Z</time></trkpt><trkpt lat="46.4812440611" lon="12.0561219100"><ele>2242.89</ele><time>2013-07-21T10:27:10Z</time></trkpt><trkpt lat="46.4813502599" lon="12.0559414476"><ele>2241.45</ele><time>2013-07-21T10:27:22Z</time></trkpt><trkpt lat="46.4814339112" lon="12.0557827782"><ele>2241.93</ele><time>2013-07-21T10:27:33Z</time></trkpt><trkpt lat="46.4814921655" lon="12.0556388609"><ele>2241.93</ele><time>2013-07-21T10:27:42Z</time></trkpt><trkpt lat="46.4815707877" lon="12.0554954465"><ele>2241.93</ele><time>2013-07-21T10:27:52Z</time></trkpt><trkpt lat="46.4815750625" lon="12.0554842986"><ele>2242.41</ele><time>2013-07-21T10:27:53Z</time></trkpt><trkpt lat="46.4816117752" lon="12.0554317441"><ele>2242.41</ele><time>2013-07-21T10:27:59Z</time></trkpt><trkpt lat="46.4816433750" lon="12.0553583186"><ele>2241.45</ele><time>2013-07-21T10:28:05Z</time></trkpt><trkpt lat="46.4817357436" lon="12.0551993977"><ele>2241.45</ele><time>2013-07-21T10:28:16Z</time></trkpt><trkpt lat="46.4817849454" lon="12.0551438257"><ele>2241.93</ele><time>2013-07-21T10:28:27Z</time></trkpt><trkpt lat="46.4817849454" lon="12.0551438257"><ele>2241.93</ele><time>2013-07-21T10:28:29Z</time></trkpt><trkpt lat="46.4818266034" lon="12.0550784469"><ele>2242.41</ele><time>2013-07-21T10:28:36Z</time></trkpt><trkpt lat="46.4818883780" lon="12.0550364535"><ele>2243.85</ele><time>2013-07-21T10:28:44Z</time></trkpt><trkpt lat="46.4819690119" lon="12.0549460128"><ele>2244.33</ele><time>2013-07-21T10:28:54Z</time></trkpt><trkpt lat="46.4820175432" lon="12.0549122337"><ele>2244.33</ele><time>2013-07-21T10:28:59Z</time></trkpt><trkpt lat="46.4821104147" lon="12.0547528937"><ele>2244.33</ele><time>2013-07-21T10:29:11Z</time></trkpt><trkpt lat="46.4821521565" lon="12.0546805579"><ele>2243.85</ele><time>2013-07-21T10:29:17Z</time></trkpt><trkpt lat="46.4822042082" lon="12.0545628760"><ele>2243.37</ele><time>2013-07-21T10:29:25Z</time></trkpt><trkpt lat="46.4823052101" lon="12.0543790609"><ele>2242.89</ele><time>2013-07-21T10:29:38Z</time></trkpt><trkpt lat="46.4823736064" lon="12.0541865285"><ele>2242.41</ele><time>2013-07-21T10:29:50Z</time></trkpt><trkpt lat="46.4824259095" lon="12.0540571958"><ele>2240.97</ele><time>2013-07-21T10:29:59Z</time></trkpt><trkpt lat="46.4824533183" lon="12.0539696049"><ele>2240.97</ele><time>2013-07-21T10:30:05Z</time></trkpt><trkpt lat="46.4824899472" lon="12.0538971014"><ele>2240.49</ele><time>2013-07-21T10:30:12Z</time></trkpt><trkpt lat="46.4825010952" lon="12.0537008811"><ele>2240.97</ele><time>2013-07-21T10:30:24Z</time></trkpt><trkpt lat="46.4824688248" lon="12.0535437204"><ele>2241.45</ele><time>2013-07-21T10:30:34Z</time></trkpt><trkpt lat="46.4824337047" lon="12.0534868073"><ele>2240.97</ele><time>2013-07-21T10:30:45Z</time></trkpt><trkpt lat="46.4824337047" lon="12.0534868073"><ele>2240.97</ele><time>2013-07-21T10:30:54Z</time></trkpt><trkpt lat="46.4824294299" lon="12.0534900762"><ele>2241.45</ele><time>2013-07-21T10:31:05Z</time></trkpt><trkpt lat="46.4824205451" lon="12.0534883998"><ele>2241.93</ele><time>2013-07-21T10:31:13Z</time></trkpt><trkpt lat="46.4824205451" lon="12.0534883998"><ele>2241.45</ele><time>2013-07-21T10:31:30Z</time></trkpt><trkpt lat="46.4824166894" lon="12.0534826163"><ele>2241.45</ele><time>2013-07-21T10:31:50Z</time></trkpt><trkpt lat="46.4824166894" lon="12.0534826163"><ele>2240.97</ele><time>2013-07-21T10:32:07Z</time></trkpt><trkpt lat="46.4824159350" lon="12.0534647629"><ele>2240.49</ele><time>2013-07-21T10:32:27Z</time></trkpt><trkpt lat="46.4824159350" lon="12.0534647629"><ele>2236.16</ele><time>2013-07-21T10:32:35Z</time></trkpt><trkpt lat="46.4824159350" lon="12.0534647629"><ele>2240.97</ele><time>2013-07-21T10:32:36Z</time></trkpt><trkpt lat="46.4824159350" lon="12.0534647629"><ele>2241.93</ele><time>2013-07-21T10:32:38Z</time></trkpt><trkpt lat="46.4824159350" lon="12.0534647629"><ele>2240.49</ele><time>2013-07-21T10:32:40Z</time></trkpt></trkseg></trk></gpx> 
